Wetterdaten: Freitag, 10.05.2013
Datum Zeit Temp. Aussen +5cm Feuchte Auss Luftdruck Regen Sonnenschein Regendauer UV Solar Windben
10.05.2013 00:00 13,0 C 11,2 C 76 % 1012,0 hPa 0,0 l/m 0 min 0 min 0,0 UV-I 0 W/m 0,0 km/h (0 Bft)
10.05.2013 00:02 13,0 C 11,2 C 76 % 1012,0 hPa 0,0 l/m 0 min 0 min 0,0 UV-I 0 W/m 0,0 km/h (0 Bft)
10.05.2013 00:06 12,9 C 11,2 C 76 % 1012,0 hPa 0,0 l/m 0 min 0 min 0,0 UV-I 0 W/m 0,0 km/h (0 Bft)
10.05.2013 00:08 12,9 C 11,2 C 76 % 1012,0 hPa 0,0 l/m 0 min 0 min 0,0 UV-I 0 W/m 0,0 km/h (0 Bft)
10.05.2013 00:10 13,0 C 11,2 C 76 % 1012,0 hPa 0,0 l/m 0 min 0 min 0,0 UV-I 0 W/m 0,0 km/h (0 Bft)
10.05.2013 00:12 13,0 C 11,2 C 76 % 1011,9 hPa 0,0 l/m 0 min 0 min 0,0 UV-I 0 W/m 0,0 km/h (0 Bft)
10.05.2013 00:14 13,0 C 11,2 C 76 % 1012,0 hPa 0,0 l/m 0 min 0 min 0,0 UV-I 0 W/m 0,0 km/h (0 Bft)
10.05.2013 00:16 12,9 C 11,2 C 76 % 1011,9 hPa 0,0 l/m 0 min 0 min 0,0 UV-I 0 W/m 0,0 km/h (0 Bft)
10.05.2013 00:18 12,9 C 11,2 C 77 % 1011,8 hPa 0,0 l/m 0 min 0 min 0,0 UV-I 0 W/m 0,0 km/h (0 Bft)
10.05.2013 00:20 12,9 C 11,2 C 77 % 1011,9 hPa 0,0 l/m 0 min 0 min 0,0 UV-I 0 W/m 0,0 km/h (0 Bft)
10.05.2013 00:22 12,9 C 11,2 C 77 % 1011,8 hPa 0,0 l/m 0 min 0 min 0,0 UV-I 0 W/m 0,0 km/h (0 Bft)
10.05.2013 00:24 12,9 C 11,2 C 77 % 1011,8 hPa 0,0 l/m 0 min 0 min 0,0 UV-I 0 W/m 0,0 km/h (0 Bft)
10.05.2013 00:26 12,9 C 11,2 C 77 % 1011,8 hPa 0,0 l/m 0 min 0 min 0,0 UV-I 0 W/m 0,0 km/h (0 Bft)
10.05.2013 00:28 12,9 C 11,2 C 77 % 1011,7 hPa 0,0 l/m 0 min 0 min 0,0 UV-I 0 W/m 0,0 km/h (0 Bft)
10.05.2013 00:30 12,9 C 11,2 C 77 % 1011,7 hPa 0,0 l/m 0 min 0 min 0,0 UV-I 0 W/m 2,6 km/h (1 Bft)
10.05.2013 00:32 12,9 C 11,2 C 77 % 1011,7 hPa 0,0 l/m 0 min 0 min 0,0 UV-I 0 W/m 0,0 km/h (0 Bft)
10.05.2013 00:34 12,9 C 11,2 C 77 % 1011,8 hPa 0,0 l/m 0 min 0 min 0,0 UV-I 0 W/m 0,0 km/h (0 Bft)
10.05.2013 00:36 12,9 C 11,8 C 76 % 1011,8 hPa 0,0 l/m 0 min 0 min 0,0 UV-I 0 W/m 0,0 km/h (0 Bft)
10.05.2013 00:38 12,8 C 11,8 C 76 % 1011,7 hPa 0,0 l/m 0 min 0 min 0,0 UV-I 0 W/m 0,0 km/h (0 Bft)
10.05.2013 00:40 12,8 C 11,8 C 76 % 1011,7 hPa 0,0 l/m 0 min 0 min 0,0 UV-I 0 W/m 0,0 km/h (0 Bft)
10.05.2013 00:42 12,8 C 11,8 C 76 % 1011,6 hPa 0,0 l/m 0 min 0 min 0,0 UV-I 0 W/m 0,0 km/h (0 Bft)
10.05.2013 00:44 12,8 C 11,8 C 76 % 1011,6 hPa 0,0 l/m 0 min 0 min 0,0 UV-I 0 W/m 0,0 km/h (0 Bft)
10.05.2013 00:46 12,8 C 11,8 C 76 % 1011,6 hPa 0,0 l/m 0 min 0 min 0,0 UV-I 0 W/m 0,0 km/h (0 Bft)
10.05.2013 00:48 12,8 C 11,2 C 76 % 1011,6 hPa 0,0 l/m 0 min 0 min 0,0 UV-I 0 W/m 0,0 km/h (0 Bft)
10.05.2013 00:50 12,8 C 11,2 C 75 % 1011,6 hPa 0,0 l/m 0 min 0 min 0,0 UV-I 0 W/m 0,0 km/h (0 Bft)
10.05.2013 00:52 12,8 C 11,2 C 75 % 1011,7 hPa 0,0 l/m 0 min 0 min 0,0 UV-I 0 W/m 0,0 km/h (0 Bft)
10.05.2013 00:54 12,8 C 11,2 C 75 % 1011,7 hPa 0,0 l/m 0 min 0 min 0,0 UV-I 0 W/m 2,6 km/h (1 Bft)
10.05.2013 00:56 12,8 C 11,2 C 75 % 1011,6 hPa 0,0 l/m 0 min 0 min 0,0 UV-I 0 W/m 2,6 km/h (1 Bft)
10.05.2013 00:58 12,8 C 11,2 C 75 % 1011,6 hPa 0,0 l/m 0 min 0 min 0,0 UV-I 0 W/m 0,0 km/h (0 Bft)
10.05.2013 01:00 12,8 C 11,2 C 75 % 1011,6 hPa 0,0 l/m 0 min 0 min 0,0 UV-I 0 W/m 0,0 km/h (0 Bft)
10.05.2013 01:02 12,8 C 11,2 C 75 % 1011,6 hPa 0,0 l/m 0 min 0 min 0,0 UV-I 0 W/m 0,0 km/h (0 Bft)
10.05.2013 01:04 12,7 C 11,2 C 75 % 1011,6 hPa 0,0 l/m 0 min 0 min 0,0 UV-I 0 W/m 0,0 km/h (0 Bft)
10.05.2013 01:06 12,7 C 11,2 C 75 % 1011,6 hPa 0,0 l/m 0 min 0 min 0,0 UV-I 0 W/m 0,0 km/h (0 Bft)
10.05.2013 01:08 12,7 C 11,2 C 75 % 1011,6 hPa 0,0 l/m 0 min 0 min 0,0 UV-I 0 W/m 0,0 km/h (0 Bft)
10.05.2013 01:10 12,7 C 11,2 C 74 % 1011,6 hPa 0,0 l/m 0 min 0 min 0,0 UV-I 0 W/m 2,6 km/h (1 Bft)
10.05.2013 01:12 12,7 C 11,2 C 74 % 1011,6 hPa 0,0 l/m 0 min 0 min 0,0 UV-I 0 W/m 0,0 km/h (0 Bft)
10.05.2013 01:14 12,7 C 11,2 C 74 % 1011,6 hPa 0,0 l/m 0 min 0 min 0,0 UV-I 0 W/m 0,0 km/h (0 Bft)
10.05.2013 01:16 12,7 C 11,2 C 74 % 1011,5 hPa 0,0 l/m 0 min 0 min 0,0 UV-I 0 W/m 0,0 km/h (0 Bft)
10.05.2013 01:18 12,7 C 11,2 C 74 % 1011,5 hPa 0,0 l/m 0 min 0 min 0,0 UV-I 0 W/m 0,0 km/h (0 Bft)
10.05.2013 01:20 12,7 C 10,7 C 74 % 1011,5 hPa 0,0 l/m 0 min 0 min 0,0 UV-I 0 W/m 0,0 km/h (0 Bft)
10.05.2013 01:22 12,7 C 10,7 C 74 % 1011,5 hPa 0,0 l/m 0 min 0 min 0,0 UV-I 0 W/m 0,0 km/h (0 Bft)
10.05.2013 01:24 12,7 C 10,7 C 74 % 1011,5 hPa 0,0 l/m 0 min 0 min 0,0 UV-I 0 W/m 0,0 km/h (0 Bft)
10.05.2013 01:26 12,6 C 10,7 C 74 % 1011,5 hPa 0,0 l/m 0 min 0 min 0,0 UV-I 0 W/m 0,0 km/h (0 Bft)
10.05.2013 01:28 12,6 C 10,7 C 74 % 1011,5 hPa 0,0 l/m 0 min 0 min 0,0 UV-I 0 W/m 0,0 km/h (0 Bft)
10.05.2013 01:30 12,6 C 10,7 C 74 % 1011,6 hPa 0,0 l/m 0 min 0 min 0,0 UV-I 0 W/m 0,0 km/h (0 Bft)
10.05.2013 01:32 12,6 C 10,1 C 74 % 1011,5 hPa 0,0 l/m 0 min 0 min 0,0 UV-I 0 W/m 0,0 km/h (0 Bft)
10.05.2013 01:34 12,6 C 10,1 C 75 % 1011,5 hPa 0,0 l/m 0 min 0 min 0,0 UV-I 0 W/m 0,0 km/h (0 Bft)
10.05.2013 01:36 12,6 C 10,1 C 75 % 1011,6 hPa 0,0 l/m 0 min 0 min 0,0 UV-I 0 W/m 0,0 km/h (0 Bft)
10.05.2013 01:38 12,5 C 10,1 C 75 % 1011,5 hPa 0,0 l/m 0 min 0 min 0,0 UV-I 0 W/m 0,0 km/h (0 Bft)
10.05.2013 01:40 12,4 C 10,1 C 75 % 1011,5 hPa 0,0 l/m 0 min 0 min 0,0 UV-I 0 W/m 0,0 km/h (0 Bft)
10.05.2013 01:42 12,4 C 10,1 C 75 % 1011,6 hPa 0,0 l/m 0 min 0 min 0,0 UV-I 0 W/m 0,0 km/h (0 Bft)
10.05.2013 01:44 12,4 C 10,1 C 75 % 1011,5 hPa 0,0 l/m 0 min 0 min 0,0 UV-I 0 W/m 7,7 km/h (2 Bft)
10.05.2013 01:46 12,3 C 10,1 C 75 % 1011,6 hPa 0,0 l/m 0 min 0 min 0,0 UV-I 0 W/m 0,0 km/h (0 Bft)
10.05.2013 01:48 12,3 C 10,1 C 75 % 1011,5 hPa 0,0 l/m 0 min 0 min 0,0 UV-I 0 W/m 0,0 km/h (0 Bft)
10.05.2013 01:50 12,3 C 10,1 C 75 % 1011,5 hPa 0,0 l/m 0 min 0 min 0,0 UV-I 0 W/m 2,6 km/h (1 Bft)
10.05.2013 01:52 12,3 C 10,1 C 75 % 1011,5 hPa 0,0 l/m 0 min 0 min 0,0 UV-I 0 W/m 0,0 km/h (0 Bft)
10.05.2013 01:54 12,2 C 10,1 C 75 % 1011,5 hPa 0,0 l/m 0 min 0 min 0,0 UV-I 0 W/m 0,0 km/h (0 Bft)
10.05.2013 01:56 12,2 C 10,1 C 75 % 1011,5 hPa 0,0 l/m 0 min 0 min 0,0 UV-I 0 W/m 0,0 km/h (0 Bft)
10.05.2013 01:58 12,2 C 10,1 C 76 % 1011,5 hPa 0,0 l/m 0 min 0 min 0,0 UV-I 0 W/m 5,1 km/h (1 Bft)
10.05.2013 02:00 12,2 C 10,1 C 76 % 1011,4 hPa 0,0 l/m 0 min 0 min 0,0 UV-I 0 W/m 0,0 km/h (0 Bft)
10.05.2013 02:02 12,1 C 10,1 C 76 % 1011,4 hPa 0,0 l/m 0 min 0 min 0,0 UV-I 0 W/m 5,1 km/h (1 Bft)
10.05.2013 02:04 12,1 C 10,1 C 76 % 1011,5 hPa 0,0 l/m 0 min 0 min 0,0 UV-I 0 W/m 0,0 km/h (0 Bft)
10.05.2013 02:06 12,1 C 10,1 C 76 % 1011,5 hPa 0,0 l/m 0 min 0 min 0,0 UV-I 0 W/m 2,6 km/h (1 Bft)
10.05.2013 02:08 12,1 C 10,1 C 76 % 1011,5 hPa 0,0 l/m 0 min 0 min 0,0 UV-I 0 W/m 0,0 km/h (0 Bft)
10.05.2013 02:10 12,1 C 10,1 C 76 % 1011,5 hPa 0,0 l/m 0 min 0 min 0,0 UV-I 0 W/m 0,0 km/h (0 Bft)
10.05.2013 02:12 12,1 C 10,1 C 76 % 1011,5 hPa 0,0 l/m 0 min 0 min 0,0 UV-I 0 W/m 0,0 km/h (0 Bft)
10.05.2013 02:14 12,0 C 9,6 C 76 % 1011,5 hPa 0,0 l/m 0 min 0 min 0,0 UV-I 0 W/m 0,0 km/h (0 Bft)
10.05.2013 02:16 12,0 C 9,6 C 76 % 1011,5 hPa 0,0 l/m 0 min 0 min 0,0 UV-I 0 W/m 0,0 km/h (0 Bft)
10.05.2013 02:18 11,9 C 10,1 C 76 % 1011,4 hPa 0,0 l/m 0 min 0 min 0,0 UV-I 0 W/m 0,0 km/h (0 Bft)
10.05.2013 02:20 11,9 C 10,1 C 76 % 1011,5 hPa 0,0 l/m 0 min 0 min 0,0 UV-I 0 W/m 7,7 km/h (2 Bft)
10.05.2013 02:22 11,9 C 10,1 C 76 % 1011,5 hPa 0,0 l/m 0 min 0 min 0,0 UV-I 0 W/m 7,7 km/h (2 Bft)
10.05.2013 02:24 11,8 C 10,1 C 76 % 1011,4 hPa 0,0 l/m 0 min 0 min 0,0 UV-I 0 W/m 5,1 km/h (1 Bft)
10.05.2013 02:26 11,8 C 10,1 C 76 % 1011,4 hPa 0,0 l/m 0 min 0 min 0,0 UV-I 0 W/m 0,0 km/h (0 Bft)
10.05.2013 02:28 11,8 C 10,1 C 76 % 1011,4 hPa 0,0 l/m 0 min 0 min 0,0 UV-I 0 W/m 2,6 km/h (1 Bft)
10.05.2013 02:30 11,8 C 9,6 C 76 % 1011,3 hPa 0,0 l/m 0 min 0 min 0,0 UV-I 0 W/m 0,0 km/h (0 Bft)
10.05.2013 02:32 11,8 C 10,1 C 76 % 1011,4 hPa 0,0 l/m 0 min 0 min 0,0 UV-I 0 W/m 5,1 km/h (1 Bft)
10.05.2013 02:34 11,8 C 9,6 C 76 % 1011,3 hPa 0,0 l/m 0 min 0 min 0,0 UV-I 0 W/m 0,0 km/h (0 Bft)
10.05.2013 02:36 11,8 C 9,6 C 76 % 1011,3 hPa 0,0 l/m 0 min 0 min 0,0 UV-I 0 W/m 2,6 km/h (1 Bft)
10.05.2013 02:38 11,7 C 9,6 C 77 % 1011,4 hPa 0,0 l/m 0 min 0 min 0,0 UV-I 0 W/m 2,6 km/h (1 Bft)
10.05.2013 02:40 11,8 C 9,6 C 77 % 1011,4 hPa 0,0 l/m 0 min 0 min 0,0 UV-I 0 W/m 0,0 km/h (0 Bft)
10.05.2013 02:42 11,7 C 9,6 C 77 % 1011,3 hPa 0,0 l/m 0 min 0 min 0,0 UV-I 0 W/m 0,0 km/h (0 Bft)
10.05.2013 02:44 11,7 C 9,6 C 77 % 1011,3 hPa 0,0 l/m 0 min 0 min 0,0 UV-I 0 W/m 0,0 km/h (0 Bft)
10.05.2013 02:46 11,7 C 10,1 C 77 % 1011,4 hPa 0,0 l/m 0 min 0 min 0,0 UV-I 0 W/m 0,0 km/h (0 Bft)
10.05.2013 02:48 11,7 C 10,1 C 77 % 1011,3 hPa 0,0 l/m 0 min 0 min 0,0 UV-I 0 W/m 2,6 km/h (1 Bft)
10.05.2013 02:50 11,7 C 10,1 C 77 % 1011,3 hPa 0,0 l/m 0 min 0 min 0,0 UV-I 0 W/m 2,6 km/h (1 Bft)
10.05.2013 02:52 11,6 C 10,1 C 77 % 1011,2 hPa 0,0 l/m 0 min 0 min 0,0 UV-I 0 W/m 10,3 km/h (2 Bft)
10.05.2013 02:54 11,6 C 10,1 C 77 % 1011,3 hPa 0,0 l/m 0 min 0 min 0,0 UV-I 0 W/m 7,7 km/h (2 Bft)
10.05.2013 02:56 11,6 C 10,1 C 77 % 1011,3 hPa 0,0 l/m 0 min 0 min 0,0 UV-I 0 W/m 0,0 km/h (0 Bft)
10.05.2013 02:58 11,6 C 10,1 C 77 % 1011,3 hPa 0,0 l/m 0 min 0 min 0,0 UV-I 0 W/m 0,0 km/h (0 Bft)
10.05.2013 03:00 11,6 C 10,1 C 77 % 1011,2 hPa 0,0 l/m 0 min 0 min 0,0 UV-I 0 W/m 2,6 km/h (1 Bft)
10.05.2013 03:02 11,6 C 10,1 C 77 % 1011,2 hPa 0,0 l/m 0 min 0 min 0,0 UV-I 0 W/m 7,7 km/h (2 Bft)
10.05.2013 03:10 11,5 C 10,1 C 77 % 1011,3 hPa 0,0 l/m 0 min 0 min 0,0 UV-I 0 W/m 15,4 km/h (3 Bft)
10.05.2013 03:12 11,5 C 10,1 C 77 % 1011,3 hPa 0,0 l/m 0 min 0 min 0,0 UV-I 0 W/m 0,0 km/h (0 Bft)
10.05.2013 03:14 11,5 C 10,1 C 77 % 1011,2 hPa 0,0 l/m 0 min 0 min 0,0 UV-I 0 W/m 10,3 km/h (2 Bft)
10.05.2013 03:16 11,5 C 10,1 C 77 % 1011,2 hPa 0,0 l/m 0 min 0 min 0,0 UV-I 0 W/m 7,7 km/h (2 Bft)
10.05.2013 03:18 11,5 C 10,1 C 77 % 1011,2 hPa 0,0 l/m 0 min 0 min 0,0 UV-I 0 W/m 2,6 km/h (1 Bft)
10.05.2013 03:20 11,4 C 10,1 C 77 % 1011,2 hPa 0,0 l/m 0 min 0 min 0,0 UV-I 0 W/m 5,1 km/h (1 Bft)
10.05.2013 03:22 11,4 C 10,1 C 77 % 1011,2 hPa 0,0 l/m 0 min 0 min 0,0 UV-I 0 W/m 5,1 km/h (1 Bft)
10.05.2013 03:24 11,4 C 10,1 C 77 % 1011,1 hPa 0,0 l/m 0 min 0 min 0,0 UV-I 0 W/m 10,3 km/h (2 Bft)
10.05.2013 03:26 11,4 C 10,7 C 76 % 1011,2 hPa 0,0 l/m 0 min 0 min 0,0 UV-I 0 W/m 10,3 km/h (2 Bft)
10.05.2013 03:28 11,5 C 10,7 C 76 % 1011,2 hPa 0,0 l/m 0 min 0 min 0,0 UV-I 0 W/m 7,7 km/h (2 Bft)
10.05.2013 03:30 11,5 C 10,1 C 76 % 1011,2 hPa 0,0 l/m 0 min 0 min 0,0 UV-I 0 W/m 7,7 km/h (2 Bft)
10.05.2013 03:32 11,5 C 10,1 C 76 % 1011,1 hPa 0,0 l/m 0 min 0 min 0,0 UV-I 0 W/m 7,7 km/h (2 Bft)
10.05.2013 03:34 11,6 C 10,1 C 76 % 1011,1 hPa 0,0 l/m 0 min 0 min 0,0 UV-I 0 W/m 7,7 km/h (2 Bft)
10.05.2013 03:36 11,6 C 10,1 C 76 % 1011,1 hPa 0,0 l/m 0 min 0 min 0,0 UV-I 0 W/m 10,3 km/h (2 Bft)
10.05.2013 03:38 11,6 C 10,7 C 76 % 1011,1 hPa 0,0 l/m 0 min 0 min 0,0 UV-I 0 W/m 7,7 km/h (2 Bft)
10.05.2013 03:40 11,6 C 10,7 C 76 % 1011,1 hPa 0,0 l/m 0 min 0 min 0,0 UV-I 0 W/m 7,7 km/h (2 Bft)
10.05.2013 03:42 11,6 C 10,1 C 75 % 1011,2 hPa 0,0 l/m 0 min 0 min 0,0 UV-I 0 W/m 12,9 km/h (3 Bft)
10.05.2013 03:44 11,6 C 10,1 C 75 % 1011,1 hPa 0,0 l/m 0 min 0 min 0,0 UV-I 0 W/m 7,7 km/h (2 Bft)
10.05.2013 03:46 11,6 C 10,1 C 75 % 1011,1 hPa 0,0 l/m 0 min 0 min 0,0 UV-I 0 W/m 10,3 km/h (2 Bft)
10.05.2013 03:48 11,6 C 10,1 C 75 % 1011,1 hPa 0,0 l/m 0 min 0 min 0,0 UV-I 0 W/m 12,9 km/h (3 Bft)
10.05.2013 03:50 11,6 C 10,7 C 75 % 1011,1 hPa 0,0 l/m 0 min 0 min 0,0 UV-I 0 W/m 12,9 km/h (3 Bft)
10.05.2013 03:52 11,6 C 10,7 C 75 % 1011,1 hPa 0,0 l/m 0 min 0 min 0,0 UV-I 0 W/m 12,9 km/h (3 Bft)
10.05.2013 03:54 11,6 C 10,7 C 75 % 1011,1 hPa 0,0 l/m 0 min 0 min 0,0 UV-I 0 W/m 5,1 km/h (1 Bft)
10.05.2013 03:56 11,6 C 10,7 C 75 % 1011,1 hPa 0,0 l/m 0 min 0 min 0,0 UV-I 0 W/m 7,7 km/h (2 Bft)
10.05.2013 03:58 11,6 C 10,1 C 75 % 1011,2 hPa 0,0 l/m 0 min 0 min 0,0 UV-I 0 W/m 7,7 km/h (2 Bft)
10.05.2013 04:00 11,6 C 10,1 C 75 % 1011,2 hPa 0,0 l/m 0 min 0 min 0,0 UV-I 0 W/m 5,1 km/h (1 Bft)
10.05.2013 04:02 11,6 C 10,1 C 75 % 1011,2 hPa 0,0 l/m 0 min 0 min 0,0 UV-I 0 W/m 0,0 km/h (0 Bft)
10.05.2013 04:04 11,6 C 10,1 C 75 % 1011,2 hPa 0,0 l/m 0 min 0 min 0,0 UV-I 0 W/m 12,9 km/h (3 Bft)
10.05.2013 04:06 11,6 C 10,1 C 75 % 1011,3 hPa 0,0 l/m 0 min 0 min 0,0 UV-I 0 W/m 23,2 km/h (4 Bft)
10.05.2013 04:08 11,6 C 10,1 C 75 % 1011,3 hPa 0,0 l/m 0 min 0 min 0,0 UV-I 0 W/m 15,4 km/h (3 Bft)
10.05.2013 04:10 11,6 C 10,1 C 75 % 1011,4 hPa 0,0 l/m 0 min 0 min 0,0 UV-I 0 W/m 18,0 km/h (3 Bft)
10.05.2013 04:12 11,6 C 10,1 C 75 % 1011,4 hPa 0,0 l/m 0 min 0 min 0,0 UV-I 0 W/m 15,4 km/h (3 Bft)
10.05.2013 04:14 11,6 C 10,1 C 75 % 1011,2 hPa 0,0 l/m 0 min 0 min 0,0 UV-I 0 W/m 10,3 km/h (2 Bft)
10.05.2013 04:16 11,6 C 10,1 C 75 % 1011,4 hPa 0,0 l/m 0 min 0 min 0,0 UV-I 0 W/m 5,1 km/h (1 Bft)
10.05.2013 04:18 11,6 C 10,1 C 75 % 1011,5 hPa 0,0 l/m 0 min 0 min 0,0 UV-I 0 W/m 18,0 km/h (3 Bft)
10.05.2013 04:20 11,6 C 10,1 C 75 % 1011,3 hPa 0,0 l/m 0 min 0 min 0,0 UV-I 0 W/m 12,9 km/h (3 Bft)
10.05.2013 04:22 11,6 C 10,1 C 76 % 1011,3 hPa 0,0 l/m 0 min 0 min 0,0 UV-I 0 W/m 5,1 km/h (1 Bft)
10.05.2013 04:24 11,6 C 10,1 C 76 % 1011,4 hPa 0,0 l/m 0 min 0 min 0,0 UV-I 0 W/m 10,3 km/h (2 Bft)
10.05.2013 04:26 11,5 C 10,1 C 76 % 1011,4 hPa 0,0 l/m 0 min 0 min 0,0 UV-I 0 W/m 10,3 km/h (2 Bft)
10.05.2013 04:28 11,5 C 10,1 C 76 % 1011,3 hPa 0,0 l/m 0 min 0 min 0,0 UV-I 0 W/m 7,7 km/h (2 Bft)
10.05.2013 04:30 11,5 C 9,6 C 76 % 1011,4 hPa 0,0 l/m 0 min 0 min 0,0 UV-I 0 W/m 5,1 km/h (1 Bft)
10.05.2013 04:32 11,4 C 9,6 C 76 % 1011,4 hPa 0,0 l/m 0 min 0 min 0,0 UV-I 0 W/m 10,3 km/h (2 Bft)
10.05.2013 04:34 11,4 C 9,6 C 76 % 1011,4 hPa 0,0 l/m 0 min 0 min 0,0 UV-I 0 W/m 12,9 km/h (3 Bft)
10.05.2013 04:36 11,4 C 9,6 C 76 % 1011,4 hPa 0,0 l/m 0 min 0 min 0,0 UV-I 0 W/m 12,9 km/h (3 Bft)
10.05.2013 04:38 11,3 C 9,6 C 76 % 1011,4 hPa 0,0 l/m 0 min 0 min 0,0 UV-I 0 W/m 0,0 km/h (0 Bft)
10.05.2013 04:40 11,3 C 9,6 C 76 % 1011,4 hPa 0,0 l/m 0 min 0 min 0,0 UV-I 0 W/m 5,1 km/h (1 Bft)
10.05.2013 04:42 11,3 C 9,6 C 77 % 1011,4 hPa 0,0 l/m 0 min 0 min 0,0 UV-I 0 W/m 7,7 km/h (2 Bft)
10.05.2013 04:44 11,2 C 9,6 C 77 % 1011,4 hPa 0,0 l/m 0 min 0 min 0,0 UV-I 0 W/m 12,9 km/h (3 Bft)
10.05.2013 04:46 11,2 C 9,6 C 77 % 1011,4 hPa 0,0 l/m 0 min 0 min 0,0 UV-I 0 W/m 10,3 km/h (2 Bft)
10.05.2013 04:48 11,2 C 9,6 C 77 % 1011,4 hPa 0,0 l/m 0 min 0 min 0,0 UV-I 0 W/m 0,0 km/h (0 Bft)
10.05.2013 04:50 11,2 C 9,6 C 77 % 1011,4 hPa 0,0 l/m 0 min 0 min 0,0 UV-I 0 W/m 0,0 km/h (0 Bft)
10.05.2013 04:52 11,1 C 9,6 C 77 % 1011,4 hPa 0,0 l/m 0 min 0 min 0,0 UV-I 0 W/m 2,6 km/h (1 Bft)
10.05.2013 04:54 11,1 C 9,6 C 77 % 1011,4 hPa 0,0 l/m 0 min 0 min 0,0 UV-I 0 W/m 0,0 km/h (0 Bft)
10.05.2013 04:56 11,1 C 9,6 C 78 % 1011,4 hPa 0,0 l/m 0 min 0 min 0,0 UV-I 0 W/m 2,6 km/h (1 Bft)
10.05.2013 04:58 11,0 C 9,0 C 78 % 1011,4 hPa 0,0 l/m 0 min 0 min 0,0 UV-I 0 W/m 0,0 km/h (0 Bft)
10.05.2013 05:00 10,9 C 9,0 C 78 % 1011,4 hPa 0,0 l/m 0 min 0 min 0,0 UV-I 0 W/m 2,6 km/h (1 Bft)
10.05.2013 05:02 10,9 C 9,0 C 78 % 1011,5 hPa 0,0 l/m 0 min 0 min 0,0 UV-I 0 W/m 0,0 km/h (0 Bft)
10.05.2013 05:04 10,9 C 9,0 C 78 % 1011,4 hPa 0,0 l/m 0 min 0 min 0,0 UV-I 0 W/m 2,6 km/h (1 Bft)
10.05.2013 05:06 10,8 C 9,0 C 78 % 1011,5 hPa 0,0 l/m 0 min 0 min 0,0 UV-I 0 W/m 10,3 km/h (2 Bft)
10.05.2013 05:08 10,8 C 9,0 C 78 % 1011,4 hPa 0,0 l/m 0 min 0 min 0,0 UV-I 0 W/m 5,1 km/h (1 Bft)
10.05.2013 05:10 10,8 C 9,0 C 79 % 1011,4 hPa 0,0 l/m 0 min 0 min 0,0 UV-I 0 W/m 5,1 km/h (1 Bft)
10.05.2013 05:12 10,7 C 9,0 C 79 % 1011,4 hPa 0,0 l/m 0 min 0 min 0,0 UV-I 0 W/m 10,3 km/h (2 Bft)
10.05.2013 05:14 10,7 C 9,0 C 79 % 1011,4 hPa 0,0 l/m 0 min 0 min 0,0 UV-I 0 W/m 5,1 km/h (1 Bft)
10.05.2013 05:16 10,7 C 9,0 C 79 % 1011,4 hPa 0,0 l/m 0 min 0 min 0,0 UV-I 0 W/m 2,6 km/h (1 Bft)
10.05.2013 05:18 10,6 C 9,0 C 79 % 1011,5 hPa 0,0 l/m 0 min 0 min 0,0 UV-I 0 W/m 7,7 km/h (2 Bft)
10.05.2013 05:20 10,6 C 9,0 C 79 % 1011,4 hPa 0,0 l/m 0 min 0 min 0,0 UV-I 0 W/m 7,7 km/h (2 Bft)
10.05.2013 05:22 10,6 C 9,0 C 79 % 1011,4 hPa 0,0 l/m 0 min 0 min 0,0 UV-I 0 W/m 7,7 km/h (2 Bft)
10.05.2013 05:24 10,5 C 9,0 C 79 % 1011,4 hPa 0,0 l/m 0 min 0 min 0,0 UV-I 0 W/m 0,0 km/h (0 Bft)
10.05.2013 05:26 10,5 C 9,0 C 80 % 1011,3 hPa 0,0 l/m 0 min 0 min 0,0 UV-I 0 W/m 10,3 km/h (2 Bft)
10.05.2013 05:28 10,4 C 9,0 C 80 % 1011,3 hPa 0,0 l/m 0 min 0 min 0,0 UV-I 0 W/m 2,6 km/h (1 Bft)
10.05.2013 05:30 10,4 C 9,0 C 80 % 1011,3 hPa 0,0 l/m 0 min 0 min 0,0 UV-I 0 W/m 12,9 km/h (3 Bft)
10.05.2013 05:32 10,4 C 9,0 C 80 % 1011,3 hPa 0,0 l/m 0 min 0 min 0,0 UV-I 0 W/m 5,1 km/h (1 Bft)
10.05.2013 05:34 10,4 C 9,0 C 80 % 1011,3 hPa 0,0 l/m 0 min 0 min 0,0 UV-I 0 W/m 12,9 km/h (3 Bft)
10.05.2013 05:36 10,3 C 9,0 C 80 % 1011,3 hPa 0,0 l/m 0 min 0 min 0,0 UV-I 0 W/m 12,9 km/h (3 Bft)
10.05.2013 05:38 10,3 C 9,0 C 80 % 1011,3 hPa 0,0 l/m 0 min 0 min 0,0 UV-I 0 W/m 10,3 km/h (2 Bft)
10.05.2013 05:40 10,3 C 9,0 C 80 % 1011,3 hPa 0,0 l/m 0 min 0 min 0,0 UV-I 0 W/m 7,7 km/h (2 Bft)
10.05.2013 05:42 10,3 C 9,0 C 80 % 1011,3 hPa 0,0 l/m 0 min 0 min 0,0 UV-I 0 W/m 5,1 km/h (1 Bft)
10.05.2013 05:44 10,3 C 9,0 C 80 % 1011,3 hPa 0,0 l/m 0 min 0 min 0,0 UV-I 0 W/m 18,0 km/h (3 Bft)
10.05.2013 05:46 10,3 C 9,0 C 81 % 1011,3 hPa 0,0 l/m 0 min 0 min 0,0 UV-I 0 W/m 0,0 km/h (0 Bft)
10.05.2013 05:48 10,2 C 9,0 C 81 % 1011,3 hPa 0,0 l/m 0 min 0 min 0,0 UV-I 0 W/m 5,1 km/h (1 Bft)
10.05.2013 05:50 10,2 C 9,0 C 81 % 1011,3 hPa 0,0 l/m 0 min 0 min 0,0 UV-I 0 W/m 2,6 km/h (1 Bft)
10.05.2013 05:52 10,2 C 9,0 C 81 % 1011,3 hPa 0,0 l/m 0 min 0 min 0,0 UV-I 0 W/m 7,7 km/h (2 Bft)
10.05.2013 05:54 10,2 C 9,0 C 81 % 1011,4 hPa 0,0 l/m 0 min 0 min 0,0 UV-I 5 W/m 5,1 km/h (1 Bft)
10.05.2013 05:56 10,2 C 9,0 C 81 % 1011,3 hPa 0,0 l/m 0 min 0 min 0,0 UV-I 5 W/m 7,7 km/h (2 Bft)
10.05.2013 05:58 10,1 C 9,0 C 81 % 1011,3 hPa 0,0 l/m 0 min 0 min 0,0 UV-I 5 W/m 2,6 km/h (1 Bft)
10.05.2013 06:00 10,1 C 9,0 C 81 % 1011,3 hPa 0,0 l/m 0 min 0 min 0,0 UV-I 7 W/m 2,6 km/h (1 Bft)
10.05.2013 06:02 10,1 C 9,0 C 81 % 1011,3 hPa 0,0 l/m 0 min 0 min 0,0 UV-I 7 W/m 7,7 km/h (2 Bft)
10.05.2013 06:04 10,1 C 9,0 C 81 % 1011,3 hPa 0,0 l/m 0 min 0 min 0,0 UV-I 7 W/m 7,7 km/h (2 Bft)
10.05.2013 06:06 10,1 C 9,0 C 81 % 1011,3 hPa 0,0 l/m 0 min 0 min 0,0 UV-I 9 W/m 2,6 km/h (1 Bft)
10.05.2013 06:08 10,0 C 8,4 C 81 % 1011,4 hPa 0,0 l/m 0 min 0 min 0,0 UV-I 9 W/m 5,1 km/h (1 Bft)
10.05.2013 06:10 10,0 C 8,4 C 81 % 1011,4 hPa 0,0 l/m 0 min 0 min 0,0 UV-I 11 W/m 0,0 km/h (0 Bft)
10.05.2013 06:12 10,0 C 8,4 C 81 % 1011,4 hPa 0,0 l/m 0 min 0 min 0,0 UV-I 12 W/m 15,4 km/h (3 Bft)
10.05.2013 06:14 9,9 C 9,0 C 81 % 1011,4 hPa 0,0 l/m 0 min 0 min 0,0 UV-I 12 W/m 7,7 km/h (2 Bft)
10.05.2013 06:16 10,0 C 9,0 C 81 % 1011,4 hPa 0,0 l/m 0 min 0 min 0,0 UV-I 14 W/m 12,9 km/h (3 Bft)
10.05.2013 06:18 9,9 C 8,4 C 81 % 1011,4 hPa 0,0 l/m 0 min 0 min 0,0 UV-I 14 W/m 7,7 km/h (2 Bft)
10.05.2013 06:20 9,9 C 9,0 C 82 % 1011,5 hPa 0,0 l/m 0 min 0 min 0,0 UV-I 16 W/m 10,3 km/h (2 Bft)
10.05.2013 06:22 9,9 C 9,0 C 82 % 1011,5 hPa 0,0 l/m 0 min 0 min 0,0 UV-I 16 W/m 10,3 km/h (2 Bft)
10.05.2013 06:24 9,9 C 9,0 C 82 % 1011,5 hPa 0,0 l/m 0 min 0 min 0,0 UV-I 18 W/m 2,6 km/h (1 Bft)
10.05.2013 06:26 9,9 C 9,0 C 82 % 1011,5 hPa 0,0 l/m 0 min 0 min 0,0 UV-I 18 W/m 10,3 km/h (2 Bft)
10.05.2013 06:28 9,9 C 9,0 C 82 % 1011,4 hPa 0,0 l/m 0 min 0 min 0,0 UV-I 19 W/m 2,6 km/h (1 Bft)
10.05.2013 06:30 9,9 C 8,4 C 82 % 1011,5 hPa 0,0 l/m 0 min 0 min 0,0 UV-I 19 W/m 10,3 km/h (2 Bft)
10.05.2013 06:32 9,9 C 9,0 C 82 % 1011,4 hPa 0,0 l/m 0 min 0 min 0,0 UV-I 19 W/m 7,7 km/h (2 Bft)
10.05.2013 06:34 9,9 C 9,0 C 82 % 1011,4 hPa 0,0 l/m 0 min 0 min 0,0 UV-I 21 W/m 5,1 km/h (1 Bft)
10.05.2013 06:36 9,9 C 9,0 C 82 % 1011,4 hPa 0,0 l/m 0 min 0 min 0,0 UV-I 21 W/m 7,7 km/h (2 Bft)
10.05.2013 06:38 9,9 C 9,0 C 82 % 1011,4 hPa 0,0 l/m 0 min 0 min 0,0 UV-I 21 W/m 7,7 km/h (2 Bft)
10.05.2013 06:40 9,9 C 9,0 C 82 % 1011,4 hPa 0,0 l/m 0 min 0 min 0,0 UV-I 23 W/m 7,7 km/h (2 Bft)
10.05.2013 06:42 9,9 C 9,0 C 81 % 1011,4 hPa 0,0 l/m 0 min 0 min 0,0 UV-I 23 W/m 5,1 km/h (1 Bft)
10.05.2013 06:44 9,9 C 9,0 C 81 % 1011,4 hPa 0,0 l/m 0 min 0 min 0,0 UV-I 25 W/m 12,9 km/h (3 Bft)
10.05.2013 06:46 10,0 C 9,0 C 81 % 1011,4 hPa 0,0 l/m 0 min 0 min 0,0 UV-I 25 W/m 7,7 km/h (2 Bft)
10.05.2013 06:48 10,0 C 9,0 C 81 % 1011,4 hPa 0,0 l/m 0 min 0 min 0,0 UV-I 25 W/m 0,0 km/h (0 Bft)
10.05.2013 06:50 10,0 C 9,0 C 81 % 1011,5 hPa 0,0 l/m 0 min 0 min 0,0 UV-I 26 W/m 2,6 km/h (1 Bft)
10.05.2013 06:52 10,0 C 9,0 C 81 % 1011,5 hPa 0,0 l/m 0 min 0 min 0,0 UV-I 26 W/m 10,3 km/h (2 Bft)
10.05.2013 06:54 10,1 C 9,0 C 81 % 1011,5 hPa 0,0 l/m 0 min 0 min 0,0 UV-I 28 W/m 5,1 km/h (1 Bft)
10.05.2013 06:56 10,1 C 9,0 C 81 % 1011,5 hPa 0,0 l/m 0 min 0 min 0,0 UV-I 28 W/m 10,3 km/h (2 Bft)
10.05.2013 06:58 10,1 C 9,0 C 81 % 1011,5 hPa 0,0 l/m 0 min 0 min 0,0 UV-I 30 W/m 12,9 km/h (3 Bft)
10.05.2013 07:00 10,1 C 9,0 C 81 % 1011,6 hPa 0,0 l/m 0 min 0 min 0,0 UV-I 30 W/m 10,3 km/h (2 Bft)
10.05.2013 07:02 10,1 C 9,6 C 81 % 1011,6 hPa 0,0 l/m 0 min 0 min 0,0 UV-I 32 W/m 15,4 km/h (3 Bft)
10.05.2013 07:04 10,2 C 9,6 C 81 % 1011,6 hPa 0,0 l/m 0 min 0 min 0,0 UV-I 35 W/m 12,9 km/h (3 Bft)
10.05.2013 07:06 10,2 C 9,6 C 81 % 1011,5 hPa 0,0 l/m 0 min 0 min 0,0 UV-I 39 W/m 5,1 km/h (1 Bft)
10.05.2013 07:08 10,2 C 9,6 C 81 % 1011,7 hPa 0,0 l/m 0 min 0 min 0,0 UV-I 49 W/m 10,3 km/h (2 Bft)
10.05.2013 07:10 10,2 C 9,6 C 81 % 1011,6 hPa 0,0 l/m 0 min 0 min 0,0 UV-I 53 W/m 15,4 km/h (3 Bft)
10.05.2013 07:12 10,2 C 9,6 C 80 % 1011,6 hPa 0,0 l/m 0 min 0 min 0,0 UV-I 53 W/m 12,9 km/h (3 Bft)
10.05.2013 07:14 10,3 C 9,6 C 80 % 1011,6 hPa 0,0 l/m 0 min 0 min 0,0 UV-I 51 W/m 5,1 km/h (1 Bft)
10.05.2013 07:16 10,3 C 9,6 C 80 % 1011,6 hPa 0,0 l/m 0 min 0 min 0,0 UV-I 49 W/m 15,4 km/h (3 Bft)
10.05.2013 07:18 10,4 C 9,6 C 80 % 1011,6 hPa 0,0 l/m 0 min 0 min 0,0 UV-I 47 W/m 25,7 km/h (4 Bft)
10.05.2013 07:20 10,4 C 9,6 C 80 % 1011,6 hPa 0,0 l/m 0 min 0 min 0,0 UV-I 53 W/m 10,3 km/h (2 Bft)
10.05.2013 07:22 10,5 C 9,6 C 80 % 1011,5 hPa 0,0 l/m 0 min 0 min 0,0 UV-I 62 W/m 18,0 km/h (3 Bft)
10.05.2013 07:24 10,6 C 10,1 C 80 % 1011,6 hPa 0,0 l/m 0 min 0 min 0,0 UV-I 81 W/m 5,1 km/h (1 Bft)
10.05.2013 07:26 10,6 C 10,1 C 80 % 1011,6 hPa 0,0 l/m 0 min 0 min 0,0 UV-I 98 W/m 15,4 km/h (3 Bft)
10.05.2013 07:28 10,7 C 10,1 C 80 % 1011,6 hPa 0,0 l/m 0 min 0 min 0,0 UV-I 93 W/m 10,3 km/h (2 Bft)
10.05.2013 07:30 10,7 C 10,7 C 79 % 1011,6 hPa 0,0 l/m 0 min 0 min 0,0 UV-I 88 W/m 18,0 km/h (3 Bft)
10.05.2013 07:32 10,8 C 10,7 C 79 % 1011,8 hPa 0,0 l/m 0 min 0 min 0,0 UV-I 91 W/m 20,6 km/h (4 Bft)
10.05.2013 07:34 10,9 C 10,7 C 79 % 1011,6 hPa 0,0 l/m 0 min 0 min 0,0 UV-I 102 W/m 23,2 km/h (4 Bft)
10.05.2013 07:36 10,9 C 10,7 C 78 % 1011,7 hPa 0,0 l/m 0 min 0 min 0,0 UV-I 114 W/m 20,6 km/h (4 Bft)
10.05.2013 07:38 11,1 C 10,7 C 78 % 1011,7 hPa 0,0 l/m 0 min 0 min 0,0 UV-I 121 W/m 5,1 km/h (1 Bft)
10.05.2013 07:40 11,1 C 10,7 C 78 % 1011,6 hPa 0,0 l/m 0 min 0 min 0,0 UV-I 116 W/m 10,3 km/h (2 Bft)
10.05.2013 07:42 11,2 C 10,7 C 78 % 1011,7 hPa 0,0 l/m 0 min 0 min 0,0 UV-I 114 W/m 15,4 km/h (3 Bft)
10.05.2013 07:44 11,2 C 10,7 C 78 % 1011,8 hPa 0,0 l/m 0 min 0 min 0,0 UV-I 114 W/m 15,4 km/h (3 Bft)
10.05.2013 07:46 11,3 C 10,7 C 77 % 1011,8 hPa 0,0 l/m 0 min 0 min 0,0 UV-I 105 W/m 12,9 km/h (3 Bft)
10.05.2013 07:48 11,4 C 11,2 C 77 % 1011,8 hPa 0,0 l/m 0 min 0 min 0,0 UV-I 105 W/m 10,3 km/h (2 Bft)
10.05.2013 07:50 11,4 C 11,2 C 77 % 1011,9 hPa 0,0 l/m 0 min 0 min 0,0 UV-I 104 W/m 23,2 km/h (4 Bft)
10.05.2013 07:52 11,4 C 11,2 C 77 % 1011,8 hPa 0,0 l/m 0 min 0 min 0,0 UV-I 105 W/m 10,3 km/h (2 Bft)
10.05.2013 07:54 11,5 C 11,2 C 77 % 1011,8 hPa 0,0 l/m 0 min 0 min 0,0 UV-I 105 W/m 0,0 km/h (0 Bft)
10.05.2013 07:56 11,6 C 11,2 C 77 % 1011,9 hPa 0,0 l/m 0 min 0 min 0,0 UV-I 109 W/m 0,0 km/h (0 Bft)
10.05.2013 07:58 11,6 C 11,2 C 77 % 1011,9 hPa 0,0 l/m 0 min 0 min 0,0 UV-I 111 W/m 15,4 km/h (3 Bft)
10.05.2013 08:00 11,6 C 11,2 C 77 % 1012,0 hPa 0,0 l/m 0 min 0 min 0,0 UV-I 111 W/m 18,0 km/h (3 Bft)
10.05.2013 08:02 11,6 C 11,2 C 76 % 1012,0 hPa 0,0 l/m 0 min 0 min 0,0 UV-I 98 W/m 12,9 km/h (3 Bft)
10.05.2013 08:04 11,6 C 11,2 C 76 % 1011,9 hPa 0,0 l/m 0 min 0 min 0,0 UV-I 91 W/m 7,7 km/h (2 Bft)
10.05.2013 08:06 11,6 C 10,7 C 76 % 1011,9 hPa 0,0 l/m 0 min 0 min 0,0 UV-I 88 W/m 18,0 km/h (3 Bft)
10.05.2013 08:08 11,7 C 10,7 C 76 % 1012,0 hPa 0,0 l/m 0 min 0 min 0,0 UV-I 83 W/m 12,9 km/h (3 Bft)
10.05.2013 08:10 11,7 C 11,2 C 76 % 1011,9 hPa 0,0 l/m 0 min 0 min 0,0 UV-I 79 W/m 7,7 km/h (2 Bft)
10.05.2013 08:12 11,7 C 10,7 C 76 % 1011,9 hPa 0,0 l/m 0 min 0 min 0,0 UV-I 77 W/m 10,3 km/h (2 Bft)
10.05.2013 08:14 11,7 C 10,7 C 76 % 1012,0 hPa 0,0 l/m 0 min 0 min 0,0 UV-I 74 W/m 10,3 km/h (2 Bft)
10.05.2013 08:16 11,7 C 10,7 C 76 % 1011,9 hPa 0,0 l/m 0 min 0 min 0,0 UV-I 72 W/m 18,0 km/h (3 Bft)
10.05.2013 08:18 11,7 C 10,7 C 76 % 1012,0 hPa 0,0 l/m 0 min 0 min 0,0 UV-I 72 W/m 2,6 km/h (1 Bft)
10.05.2013 08:20 11,7 C 10,7 C 76 % 1012,0 hPa 0,0 l/m 0 min 0 min 0,0 UV-I 76 W/m 5,1 km/h (1 Bft)
10.05.2013 08:22 11,7 C 10,7 C 76 % 1012,1 hPa 0,0 l/m 0 min 0 min 0,0 UV-I 81 W/m 23,2 km/h (4 Bft)
10.05.2013 08:24 11,7 C 11,2 C 76 % 1012,1 hPa 0,0 l/m 0 min 0 min 0,0 UV-I 91 W/m 23,2 km/h (4 Bft)
10.05.2013 08:26 11,7 C 11,2 C 75 % 1012,2 hPa 0,0 l/m 0 min 0 min 0,0 UV-I 98 W/m 15,4 km/h (3 Bft)
10.05.2013 08:28 11,7 C 11,2 C 75 % 1012,1 hPa 0,0 l/m 0 min 0 min 0,0 UV-I 100 W/m 18,0 km/h (3 Bft)
10.05.2013 08:30 11,7 C 11,2 C 75 % 1012,2 hPa 0,0 l/m 0 min 0 min 0,0 UV-I 100 W/m 7,7 km/h (2 Bft)
10.05.2013 08:32 11,7 C 11,2 C 75 % 1012,2 hPa 0,0 l/m 0 min 0 min 0,0 UV-I 114 W/m 10,3 km/h (2 Bft)
10.05.2013 08:34 11,7 C 11,2 C 75 % 1012,2 hPa 0,0 l/m 0 min 0 min 0,0 UV-I 135 W/m 7,7 km/h (2 Bft)
10.05.2013 08:36 11,7 C 11,2 C 75 % 1012,2 hPa 0,0 l/m 0 min 0 min 0,0 UV-I 146 W/m 5,1 km/h (1 Bft)
10.05.2013 08:38 11,7 C 11,2 C 76 % 1012,3 hPa 0,0 l/m 0 min 0 min 0,0 UV-I 144 W/m 5,1 km/h (1 Bft)
10.05.2013 08:40 11,8 C 11,8 C 75 % 1012,4 hPa 0,0 l/m 0 min 0 min 0,0 UV-I 172 W/m 7,7 km/h (2 Bft)
10.05.2013 08:42 11,8 C 11,8 C 75 % 1012,4 hPa 0,0 l/m 0 min 2 min 0,0 UV-I 165 W/m 7,7 km/h (2 Bft)
10.05.2013 08:44 11,8 C 11,8 C 75 % 1012,3 hPa 0,0 l/m 0 min 2 min 0,0 UV-I 146 W/m 12,9 km/h (3 Bft)
10.05.2013 08:46 11,9 C 11,8 C 75 % 1012,3 hPa 0,0 l/m 0 min 0 min 0,0 UV-I 128 W/m 15,4 km/h (3 Bft)
10.05.2013 08:48 11,9 C 11,8 C 75 % 1012,4 hPa 0,0 l/m 0 min 2 min 0,0 UV-I 121 W/m 15,4 km/h (3 Bft)
10.05.2013 08:50 11,9 C 11,2 C 74 % 1012,5 hPa 0,0 l/m 0 min 0 min 0,0 UV-I 114 W/m 12,9 km/h (3 Bft)
10.05.2013 08:52 11,9 C 11,2 C 74 % 1012,5 hPa 0,0 l/m 0 min 0 min 0,0 UV-I 104 W/m 12,9 km/h (3 Bft)
10.05.2013 08:54 11,9 C 11,2 C 74 % 1012,6 hPa 0,0 l/m 0 min 2 min 0,0 UV-I 91 W/m 7,7 km/h (2 Bft)
10.05.2013 08:56 11,9 C 11,2 C 74 % 1012,6 hPa 0,0 l/m 0 min 2 min 0,0 UV-I 86 W/m 20,6 km/h (4 Bft)
10.05.2013 08:58 11,9 C 11,2 C 74 % 1012,6 hPa 0,0 l/m 0 min 0 min 0,0 UV-I 86 W/m 5,1 km/h (1 Bft)
10.05.2013 09:00 11,9 C 11,2 C 74 % 1012,7 hPa 0,0 l/m 0 min 0 min 0,0 UV-I 88 W/m 7,7 km/h (2 Bft)
10.05.2013 09:02 11,9 C 11,2 C 74 % 1012,6 hPa 0,0 l/m 0 min 0 min 0,0 UV-I 97 W/m 20,6 km/h (4 Bft)
10.05.2013 09:04 11,9 C 11,2 C 74 % 1012,8 hPa 0,0 l/m 0 min 0 min 0,0 UV-I 105 W/m 15,4 km/h (3 Bft)
10.05.2013 09:06 11,9 C 10,7 C 74 % 1012,7 hPa 0,0 l/m 0 min 2 min 0,0 UV-I 102 W/m 25,7 km/h (4 Bft)
10.05.2013 09:08 11,9 C 10,7 C 75 % 1012,8 hPa 0,0 l/m 0 min 2 min 0,0 UV-I 109 W/m 18,0 km/h (3 Bft)
10.05.2013 09:10 11,9 C 10,7 C 75 % 1012,7 hPa 0,0 l/m 0 min 2 min 0,0 UV-I 125 W/m 30,9 km/h (5 Bft)
10.05.2013 09:12 11,8 C 10,7 C 75 % 1012,7 hPa 0,0 l/m 0 min 0 min 0,0 UV-I 146 W/m 23,2 km/h (4 Bft)
10.05.2013 09:14 11,8 C 10,7 C 75 % 1012,7 hPa 0,0 l/m 0 min 0 min 0,0 UV-I 120 W/m 15,4 km/h (3 Bft)
10.05.2013 09:16 11,8 C 10,7 C 76 % 1012,7 hPa 0,0 l/m 0 min 0 min 0,0 UV-I 120 W/m 2,6 km/h (1 Bft)
10.05.2013 09:18 11,8 C 11,2 C 76 % 1012,8 hPa 0,0 l/m 0 min 2 min 0,0 UV-I 156 W/m 2,6 km/h (1 Bft)
10.05.2013 09:20 11,8 C 11,2 C 76 % 1012,7 hPa 0,0 l/m 0 min 2 min 0,0 UV-I 167 W/m 15,4 km/h (3 Bft)
10.05.2013 09:22 11,8 C 11,2 C 77 % 1012,8 hPa 0,0 l/m 0 min 0 min 0,0 UV-I 163 W/m 5,1 km/h (1 Bft)
10.05.2013 09:24 11,8 C 11,2 C 77 % 1012,8 hPa 0,0 l/m 0 min 0 min 0,0 UV-I 165 W/m 5,1 km/h (1 Bft)
10.05.2013 09:26 11,8 C 11,2 C 77 % 1012,8 hPa 0,0 l/m 0 min 0 min 0,0 UV-I 172 W/m 23,2 km/h (4 Bft)
10.05.2013 09:28 11,8 C 11,8 C 77 % 1012,8 hPa 0,0 l/m 0 min 0 min 0,0 UV-I 227 W/m 5,1 km/h (1 Bft)
10.05.2013 09:30 11,8 C 11,8 C 77 % 1012,8 hPa 0,0 l/m 0 min 0 min 0,0 UV-I 255 W/m 10,3 km/h (2 Bft)
10.05.2013 09:32 11,8 C 11,8 C 77 % 1012,8 hPa 0,0 l/m 0 min 0 min 0,0 UV-I 250 W/m 23,2 km/h (4 Bft)
10.05.2013 09:34 11,8 C 11,8 C 76 % 1012,9 hPa 0,0 l/m 0 min 0 min 0,0 UV-I 255 W/m 28,3 km/h (4 Bft)
10.05.2013 09:36 11,8 C 11,8 C 76 % 1013,0 hPa 0,0 l/m 0 min 0 min 0,0 UV-I 216 W/m 15,4 km/h (3 Bft)
10.05.2013 09:38 11,9 C 11,8 C 76 % 1012,8 hPa 0,0 l/m 0 min 0 min 0,0 UV-I 195 W/m 15,4 km/h (3 Bft)
10.05.2013 09:40 11,9 C 11,8 C 76 % 1012,8 hPa 0,0 l/m 0 min 0 min 0,0 UV-I 183 W/m 5,1 km/h (1 Bft)
10.05.2013 09:42 12,0 C 12,9 C 76 % 1012,9 hPa 0,0 l/m 0 min 0 min 1,0 UV-I 183 W/m 10,3 km/h (2 Bft)
10.05.2013 09:44 12,1 C 14,0 C 75 % 1012,8 hPa 0,0 l/m 0 min 0 min 1,4 UV-I 183 W/m 25,7 km/h (4 Bft)
10.05.2013 09:46 12,1 C 14,6 C 75 % 1012,9 hPa 0,0 l/m 2 min 0 min 1,2 UV-I 462 W/m 12,9 km/h (3 Bft)
10.05.2013 09:48 12,3 C 15,7 C 75 % 1012,9 hPa 0,0 l/m 2 min 0 min 0,8 UV-I 462 W/m 18,0 km/h (3 Bft)
10.05.2013 09:50 12,4 C 14,6 C 74 % 1012,8 hPa 0,0 l/m 2 min 0 min 0,8 UV-I 380 W/m 20,6 km/h (4 Bft)
10.05.2013 09:52 12,4 C 15,1 C 74 % 1012,9 hPa 0,0 l/m 2 min 0 min 1,4 UV-I 461 W/m 18,0 km/h (3 Bft)
10.05.2013 09:54 12,6 C 16,2 C 74 % 1012,9 hPa 0,0 l/m 2 min 0 min 1,3 UV-I 566 W/m 18,0 km/h (3 Bft)
10.05.2013 09:56 12,7 C 16,8 C 73 % 1012,9 hPa 0,0 l/m 2 min 0 min 1,4 UV-I 571 W/m 28,3 km/h (4 Bft)
10.05.2013 09:58 12,8 C 17,3 C 74 % 1012,7 hPa 0,0 l/m 2 min 0 min 1,5 UV-I 680 W/m 18,0 km/h (3 Bft)
10.05.2013 10:00 12,9 C 17,9 C 74 % 1012,8 hPa 0,0 l/m 2 min 0 min 1,3 UV-I 366 W/m 10,3 km/h (2 Bft)
10.05.2013 10:02 13,0 C 17,3 C 74 % 1012,8 hPa 0,0 l/m 0 min 0 min 1,5 UV-I 276 W/m 12,9 km/h (3 Bft)
10.05.2013 10:04 13,1 C 19,6 C 73 % 1012,7 hPa 0,0 l/m 2 min 0 min 1,5 UV-I 591 W/m 23,2 km/h (4 Bft)
10.05.2013 10:06 13,3 C 19,6 C 73 % 1012,8 hPa 0,0 l/m 2 min 0 min 1,5 UV-I 585 W/m 20,6 km/h (4 Bft)
10.05.2013 10:08 13,4 C 20,1 C 73 % 1012,9 hPa 0,0 l/m 2 min 0 min 1,6 UV-I 598 W/m 10,3 km/h (2 Bft)
10.05.2013 10:10 13,5 C 19,6 C 72 % 1012,9 hPa 0,0 l/m 2 min 0 min 1,8 UV-I 652 W/m 18,0 km/h (3 Bft)
10.05.2013 10:15 13,8 C 16,2 C 72 % 1013,0 hPa 0,0 l/m 2 min 0 min 1,6 UV-I 747 W/m 18,0 km/h (3 Bft)
10.05.2013 10:22 13,8 C 14,0 C 71 % 1013,0 hPa 0,0 l/m 0 min 0 min 0,7 UV-I 220 W/m 20,6 km/h (4 Bft)
10.05.2013 10:24 13,8 C 15,1 C 71 % 1012,9 hPa 0,0 l/m 0 min 0 min 1,2 UV-I 313 W/m 28,3 km/h (4 Bft)
10.05.2013 10:26 13,8 C 16,2 C 71 % 1012,9 hPa 0,0 l/m 2 min 0 min 1,2 UV-I 485 W/m 28,3 km/h (4 Bft)
10.05.2013 10:28 13,8 C 15,7 C 72 % 1013,0 hPa 0,0 l/m 0 min 0 min 1,0 UV-I 346 W/m 15,4 km/h (3 Bft)
10.05.2013 10:30 13,8 C 15,1 C 70 % 1013,2 hPa 0,0 l/m 0 min 0 min 1,0 UV-I 346 W/m 25,7 km/h (4 Bft)
10.05.2013 10:32 13,8 C 15,1 C 72 % 1013,0 hPa 0,0 l/m 0 min 0 min 0,9 UV-I 346 W/m 7,7 km/h (2 Bft)
10.05.2013 10:34 13,8 C 14,6 C 72 % 1013,1 hPa 0,0 l/m 0 min 0 min 0,9 UV-I 348 W/m 15,4 km/h (3 Bft)
10.05.2013 10:36 13,8 C 14,6 C 72 % 1013,1 hPa 0,0 l/m 0 min 0 min 1,0 UV-I 308 W/m 15,4 km/h (3 Bft)
10.05.2013 10:38 13,8 C 14,6 C 72 % 1013,0 hPa 0,0 l/m 0 min 0 min 1,0 UV-I 272 W/m 15,4 km/h (3 Bft)
10.05.2013 10:40 13,8 C 16,8 C 72 % 1013,0 hPa 0,0 l/m 2 min 0 min 2,2 UV-I 735 W/m 12,9 km/h (3 Bft)
10.05.2013 10:42 13,9 C 17,3 C 72 % 1013,2 hPa 0,0 l/m 2 min 0 min 2,2 UV-I 735 W/m 28,3 km/h (4 Bft)
10.05.2013 10:44 14,0 C 17,3 C 72 % 1013,0 hPa 0,0 l/m 2 min 0 min 2,4 UV-I 735 W/m 15,4 km/h (3 Bft)
10.05.2013 10:46 14,0 C 19,6 C 72 % 1013,0 hPa 0,0 l/m 2 min 0 min 1,5 UV-I 735 W/m 10,3 km/h (2 Bft)
10.05.2013 10:48 14,1 C 17,9 C 70 % 1013,0 hPa 0,0 l/m 2 min 0 min 2,2 UV-I 735 W/m 23,2 km/h (4 Bft)
10.05.2013 10:50 14,2 C 16,8 C 71 % 1013,0 hPa 0,0 l/m 0 min 0 min 1,3 UV-I 362 W/m 18,0 km/h (3 Bft)
10.05.2013 10:52 14,3 C 16,2 C 70 % 1013,0 hPa 0,0 l/m 0 min 0 min 1,1 UV-I 376 W/m 23,2 km/h (4 Bft)
10.05.2013 10:54 14,3 C 15,7 C 70 % 1013,0 hPa 0,0 l/m 0 min 0 min 1,0 UV-I 348 W/m 18,0 km/h (3 Bft)
10.05.2013 10:56 14,3 C 15,1 C 70 % 1013,1 hPa 0,0 l/m 0 min 0 min 1,0 UV-I 327 W/m 18,0 km/h (3 Bft)
10.05.2013 10:58 14,3 C 15,1 C 70 % 1013,0 hPa 0,0 l/m 0 min 0 min 0,9 UV-I 294 W/m 20,6 km/h (4 Bft)
10.05.2013 11:00 14,3 C 14,6 C 70 % 1013,1 hPa 0,0 l/m 0 min 0 min 1,1 UV-I 297 W/m 18,0 km/h (3 Bft)
10.05.2013 11:02 14,3 C 16,2 C 70 % 1013,2 hPa 0,0 l/m 0 min 0 min 2,3 UV-I 297 W/m 18,0 km/h (3 Bft)
10.05.2013 11:04 14,3 C 16,2 C 70 % 1013,1 hPa 0,0 l/m 0 min 0 min 1,3 UV-I 297 W/m 18,0 km/h (3 Bft)
10.05.2013 11:06 14,3 C 15,7 C 70 % 1013,1 hPa 0,0 l/m 0 min 0 min 1,8 UV-I 369 W/m 23,2 km/h (4 Bft)
10.05.2013 11:08 14,3 C 17,3 C 69 % 1013,2 hPa 0,0 l/m 2 min 0 min 3,0 UV-I 960 W/m 30,9 km/h (5 Bft)
10.05.2013 11:10 14,4 C 19,0 C 70 % 1013,3 hPa 0,0 l/m 2 min 0 min 1,3 UV-I 902 W/m 12,9 km/h (3 Bft)
10.05.2013 11:12 14,5 C 18,4 C 70 % 1013,2 hPa 0,0 l/m 2 min 0 min 2,8 UV-I 765 W/m 18,0 km/h (3 Bft)
10.05.2013 11:14 14,6 C 20,1 C 70 % 1013,2 hPa 0,0 l/m 2 min 0 min 2,9 UV-I 831 W/m 25,7 km/h (4 Bft)
10.05.2013 11:16 14,7 C 21,2 C 70 % 1013,1 hPa 0,0 l/m 2 min 0 min 3,0 UV-I 735 W/m 15,4 km/h (3 Bft)
10.05.2013 11:18 14,9 C 20,7 C 70 % 1013,1 hPa 0,0 l/m 2 min 0 min 3,0 UV-I 805 W/m 12,9 km/h (3 Bft)
10.05.2013 11:20 15,1 C 20,7 C 70 % 1013,1 hPa 0,0 l/m 2 min 0 min 3,2 UV-I 882 W/m 18,0 km/h (3 Bft)
10.05.2013 11:22 15,2 C 20,1 C 68 % 1013,0 hPa 0,0 l/m 2 min 0 min 3,2 UV-I 867 W/m 20,6 km/h (4 Bft)
10.05.2013 11:24 15,3 C 19,0 C 68 % 1013,2 hPa 0,0 l/m 2 min 0 min 2,9 UV-I 819 W/m 15,4 km/h (3 Bft)
10.05.2013 11:26 15,3 C 16,8 C 67 % 1013,2 hPa 0,0 l/m 0 min 0 min 1,3 UV-I 276 W/m 28,3 km/h (4 Bft)
10.05.2013 11:28 15,2 C 16,2 C 67 % 1013,2 hPa 0,0 l/m 0 min 0 min 3,4 UV-I 269 W/m 18,0 km/h (3 Bft)
10.05.2013 11:30 15,0 C 16,2 C 67 % 1013,3 hPa 0,0 l/m 0 min 0 min 3,6 UV-I 269 W/m 30,9 km/h (5 Bft)
10.05.2013 11:32 14,9 C 16,8 C 69 % 1013,2 hPa 0,0 l/m 2 min 0 min 3,1 UV-I 1005 W/m 20,6 km/h (4 Bft)
10.05.2013 11:34 14,9 C 16,8 C 70 % 1013,2 hPa 0,0 l/m 2 min 0 min 3,5 UV-I 1005 W/m 12,9 km/h (3 Bft)
10.05.2013 11:36 15,1 C 17,3 C 70 % 1013,2 hPa 0,0 l/m 2 min 0 min 2,1 UV-I 1041 W/m 12,9 km/h (3 Bft)
10.05.2013 11:38 15,2 C 16,8 C 68 % 1013,3 hPa 0,0 l/m 0 min 0 min 1,2 UV-I 308 W/m 28,3 km/h (4 Bft)
10.05.2013 11:40 14,9 C 16,2 C 68 % 1013,3 hPa 0,0 l/m 0 min 0 min 0,7 UV-I 243 W/m 15,4 km/h (3 Bft)
10.05.2013 11:42 14,8 C 15,7 C 70 % 1013,2 hPa 0,0 l/m 0 min 0 min 0,9 UV-I 244 W/m 12,9 km/h (3 Bft)
10.05.2013 11:44 14,6 C 15,1 C 70 % 1013,3 hPa 0,0 l/m 0 min 0 min 0,9 UV-I 244 W/m 10,3 km/h (2 Bft)
10.05.2013 11:46 14,4 C 14,6 C 70 % 1013,2 hPa 0,0 l/m 0 min 0 min 0,9 UV-I 229 W/m 18,0 km/h (3 Bft)
10.05.2013 11:48 14,3 C 15,7 C 70 % 1013,4 hPa 0,0 l/m 2 min 0 min 3,1 UV-I 891 W/m 15,4 km/h (3 Bft)
10.05.2013 11:50 14,4 C 16,8 C 71 % 1013,3 hPa 0,0 l/m 2 min 0 min 3,6 UV-I 972 W/m 12,9 km/h (3 Bft)
10.05.2013 11:52 14,7 C 17,3 C 71 % 1013,3 hPa 0,0 l/m 0 min 0 min 1,0 UV-I 264 W/m 7,7 km/h (2 Bft)
10.05.2013 11:54 14,6 C 16,2 C 69 % 1013,3 hPa 0,0 l/m 0 min 0 min 0,0 UV-I 185 W/m 10,3 km/h (2 Bft)
10.05.2013 11:56 14,5 C 15,1 C 69 % 1013,2 hPa 0,0 l/m 0 min 0 min 0,0 UV-I 146 W/m 18,0 km/h (3 Bft)
10.05.2013 11:58 14,3 C 14,6 C 70 % 1013,2 hPa 0,0 l/m 0 min 0 min 0,0 UV-I 98 W/m 25,7 km/h (4 Bft)
10.05.2013 12:00 14,3 C 14,0 C 70 % 1013,3 hPa 0,0 l/m 0 min 0 min 0,0 UV-I 90 W/m 18,0 km/h (3 Bft)
10.05.2013 12:02 14,2 C 13,4 C 70 % 1013,4 hPa 0,0 l/m 0 min 0 min 0,0 UV-I 116 W/m 12,9 km/h (3 Bft)
10.05.2013 12:04 14,1 C 13,4 C 71 % 1013,3 hPa 0,0 l/m 0 min 0 min 0,0 UV-I 137 W/m 20,6 km/h (4 Bft)
10.05.2013 12:06 14,0 C 13,4 C 71 % 1013,4 hPa 0,0 l/m 0 min 0 min 0,5 UV-I 186 W/m 23,2 km/h (4 Bft)
10.05.2013 12:08 14,0 C 14,0 C 70 % 1013,5 hPa 0,0 l/m 0 min 0 min 1,3 UV-I 283 W/m 15,4 km/h (3 Bft)
10.05.2013 12:10 14,0 C 14,6 C 71 % 1013,4 hPa 0,0 l/m 0 min 0 min 3,6 UV-I 283 W/m 12,9 km/h (3 Bft)
10.05.2013 12:12 14,1 C 17,9 C 71 % 1013,5 hPa 0,0 l/m 2 min 0 min 4,0 UV-I 940 W/m 18,0 km/h (3 Bft)
10.05.2013 12:14 14,6 C 19,0 C 70 % 1013,4 hPa 0,0 l/m 2 min 0 min 2,2 UV-I 958 W/m 23,2 km/h (4 Bft)
10.05.2013 12:16 14,8 C 18,4 C 68 % 1013,5 hPa 0,0 l/m 2 min 0 min 1,9 UV-I 958 W/m 18,0 km/h (3 Bft)
10.05.2013 12:18 14,8 C 16,8 C 68 % 1013,4 hPa 0,0 l/m 0 min 0 min 1,4 UV-I 355 W/m 20,6 km/h (4 Bft)
10.05.2013 12:20 14,7 C 16,2 C 68 % 1013,6 hPa 0,0 l/m 0 min 0 min 1,0 UV-I 271 W/m 12,9 km/h (3 Bft)
10.05.2013 12:22 14,7 C 15,7 C 69 % 1013,5 hPa 0,0 l/m 0 min 0 min 1,6 UV-I 336 W/m 18,0 km/h (3 Bft)
10.05.2013 12:24 14,7 C 15,7 C 69 % 1013,5 hPa 0,0 l/m 0 min 0 min 1,7 UV-I 322 W/m 28,3 km/h (4 Bft)
10.05.2013 12:26 14,7 C 15,7 C 68 % 1013,4 hPa 0,0 l/m 0 min 0 min 1,6 UV-I 251 W/m 12,9 km/h (3 Bft)
10.05.2013 12:28 14,6 C 15,1 C 68 % 1013,5 hPa 0,0 l/m 0 min 0 min 1,4 UV-I 179 W/m 20,6 km/h (4 Bft)
10.05.2013 12:30 14,5 C 14,6 C 68 % 1013,4 hPa 0,0 l/m 0 min 0 min 1,3 UV-I 151 W/m 23,2 km/h (4 Bft)
10.05.2013 12:32 14,4 C 14,0 C 68 % 1013,5 hPa 0,0 l/m 0 min 0 min 1,1 UV-I 158 W/m 23,2 km/h (4 Bft)
10.05.2013 12:34 14,2 C 14,0 C 68 % 1013,4 hPa 0,0 l/m 0 min 0 min 1,2 UV-I 190 W/m 15,4 km/h (3 Bft)
10.05.2013 12:36 14,2 C 14,6 C 68 % 1013,5 hPa 0,0 l/m 0 min 0 min 1,1 UV-I 225 W/m 25,7 km/h (4 Bft)
10.05.2013 12:38 14,2 C 14,6 C 69 % 1013,6 hPa 0,0 l/m 0 min 0 min 1,2 UV-I 227 W/m 23,2 km/h (4 Bft)
10.05.2013 12:40 14,1 C 14,6 C 69 % 1013,6 hPa 0,0 l/m 0 min 0 min 1,3 UV-I 221 W/m 15,4 km/h (3 Bft)
10.05.2013 12:42 14,1 C 15,1 C 69 % 1013,5 hPa 0,0 l/m 0 min 0 min 1,5 UV-I 244 W/m 25,7 km/h (4 Bft)
10.05.2013 12:44 14,3 C 15,7 C 70 % 1013,5 hPa 0,0 l/m 0 min 0 min 1,1 UV-I 260 W/m 10,3 km/h (2 Bft)
10.05.2013 12:46 14,4 C 15,1 C 70 % 1013,6 hPa 0,0 l/m 0 min 0 min 0,6 UV-I 202 W/m 7,7 km/h (2 Bft)
10.05.2013 12:48 14,4 C 14,6 C 70 % 1013,6 hPa 0,0 l/m 0 min 0 min 0,0 UV-I 134 W/m 15,4 km/h (3 Bft)
10.05.2013 12:50 14,3 C 14,0 C 70 % 1013,6 hPa 0,0 l/m 0 min 0 min 0,0 UV-I 109 W/m 23,2 km/h (4 Bft)
10.05.2013 12:52 14,2 C 14,0 C 70 % 1013,7 hPa 0,0 l/m 0 min 0 min 0,0 UV-I 116 W/m 23,2 km/h (4 Bft)
10.05.2013 12:54 14,0 C 13,4 C 70 % 1013,7 hPa 0,0 l/m 0 min 0 min 0,0 UV-I 158 W/m 25,7 km/h (4 Bft)
10.05.2013 12:56 14,0 C 14,0 C 71 % 1013,7 hPa 0,0 l/m 0 min 0 min 0,9 UV-I 234 W/m 10,3 km/h (2 Bft)
10.05.2013 12:58 14,0 C 14,6 C 71 % 1013,8 hPa 0,0 l/m 0 min 0 min 1,5 UV-I 327 W/m 20,6 km/h (4 Bft)
10.05.2013 13:00 14,0 C 15,1 C 70 % 1013,7 hPa 0,0 l/m 0 min 0 min 1,9 UV-I 383 W/m 18,0 km/h (3 Bft)
10.05.2013 13:02 14,3 C 16,8 C 70 % 1013,7 hPa 0,0 l/m 2 min 0 min 2,2 UV-I 1051 W/m 25,7 km/h (4 Bft)
10.05.2013 13:04 14,8 C 19,6 C 70 % 1013,7 hPa 0,0 l/m 2 min 0 min 2,0 UV-I 974 W/m 7,7 km/h (2 Bft)
10.05.2013 13:06 15,3 C 20,7 C 68 % 1013,7 hPa 0,0 l/m 2 min 0 min 1,9 UV-I 854 W/m 18,0 km/h (3 Bft)
10.05.2013 13:08 15,6 C 21,2 C 67 % 1013,7 hPa 0,0 l/m 2 min 0 min 1,9 UV-I 872 W/m 18,0 km/h (3 Bft)
10.05.2013 13:10 15,9 C 22,3 C 67 % 1013,7 hPa 0,0 l/m 2 min 0 min 1,9 UV-I 773 W/m 15,4 km/h (3 Bft)
10.05.2013 13:12 16,1 C 20,1 C 66 % 1013,7 hPa 0,0 l/m 0 min 0 min 1,0 UV-I 202 W/m 18,0 km/h (3 Bft)
10.05.2013 13:14 15,9 C 17,9 C 65 % 1013,7 hPa 0,0 l/m 0 min 0 min 0,5 UV-I 169 W/m 25,7 km/h (4 Bft)
10.05.2013 13:16 15,6 C 16,2 C 66 % 1013,7 hPa 0,0 l/m 0 min 0 min 0,8 UV-I 218 W/m 12,9 km/h (3 Bft)
10.05.2013 13:18 15,4 C 16,2 C 66 % 1013,9 hPa 0,0 l/m 0 min 0 min 1,1 UV-I 276 W/m 15,4 km/h (3 Bft)
10.05.2013 13:20 15,2 C 15,7 C 67 % 1013,9 hPa 0,0 l/m 0 min 0 min 1,4 UV-I 292 W/m 18,0 km/h (3 Bft)
10.05.2013 13:22 14,9 C 15,7 C 67 % 1014,0 hPa 0,0 l/m 0 min 0 min 1,9 UV-I 371 W/m 15,4 km/h (3 Bft)
10.05.2013 13:24 14,9 C 16,8 C 68 % 1013,8 hPa 0,0 l/m 0 min 0 min 2,4 UV-I 371 W/m 7,7 km/h (2 Bft)
10.05.2013 13:26 15,2 C 17,3 C 69 % 1013,9 hPa 0,0 l/m 0 min 0 min 2,1 UV-I 334 W/m 7,7 km/h (2 Bft)
10.05.2013 13:28 15,4 C 19,0 C 70 % 1013,8 hPa 0,0 l/m 2 min 0 min 2,3 UV-I 930 W/m 10,3 km/h (2 Bft)
10.05.2013 13:30 15,8 C 21,2 C 68 % 1013,8 hPa 0,0 l/m 2 min 0 min 2,1 UV-I 977 W/m 30,9 km/h (5 Bft)
10.05.2013 13:32 16,1 C 21,8 C 65 % 1013,8 hPa 0,0 l/m 2 min 0 min 2,2 UV-I 993 W/m 23,2 km/h (4 Bft)
10.05.2013 13:34 16,2 C 21,8 C 65 % 1013,7 hPa 0,0 l/m 2 min 0 min 2,3 UV-I 956 W/m 12,9 km/h (3 Bft)
10.05.2013 13:36 16,3 C 22,3 C 64 % 1013,7 hPa 0,0 l/m 2 min 0 min 2,5 UV-I 963 W/m 30,9 km/h (5 Bft)
10.05.2013 13:38 16,3 C 22,9 C 65 % 1013,9 hPa 0,0 l/m 2 min 0 min 2,9 UV-I 974 W/m 12,9 km/h (3 Bft)
10.05.2013 13:40 16,5 C 22,9 C 65 % 1013,7 hPa 0,0 l/m 2 min 0 min 3,2 UV-I 986 W/m 15,4 km/h (3 Bft)
10.05.2013 13:42 16,6 C 20,1 C 63 % 1013,8 hPa 0,0 l/m 0 min 0 min 1,3 UV-I 255 W/m 7,7 km/h (2 Bft)
10.05.2013 13:44 16,4 C 17,9 C 64 % 1013,9 hPa 0,0 l/m 0 min 0 min 0,5 UV-I 172 W/m 23,2 km/h (4 Bft)
10.05.2013 13:46 16,2 C 16,2 C 64 % 1013,8 hPa 0,0 l/m 0 min 0 min 0,0 UV-I 86 W/m 25,7 km/h (4 Bft)
10.05.2013 13:48 15,8 C 15,1 C 65 % 1013,9 hPa 0,0 l/m 0 min 0 min 0,0 UV-I 67 W/m 18,0 km/h (3 Bft)
10.05.2013 13:50 15,5 C 14,6 C 66 % 1014,0 hPa 0,0 l/m 0 min 0 min 0,0 UV-I 70 W/m 28,3 km/h (4 Bft)
10.05.2013 13:52 15,2 C 14,0 C 67 % 1014,0 hPa 0,0 l/m 0 min 0 min 0,0 UV-I 100 W/m 23,2 km/h (4 Bft)
10.05.2013 13:54 14,9 C 14,0 C 67 % 1014,0 hPa 0,0 l/m 0 min 0 min 0,0 UV-I 102 W/m 20,6 km/h (4 Bft)
10.05.2013 13:56 14,7 C 14,0 C 70 % 1013,9 hPa 0,0 l/m 0 min 0 min 0,0 UV-I 114 W/m 2,6 km/h (1 Bft)
10.05.2013 13:58 14,6 C 14,0 C 70 % 1014,0 hPa 0,0 l/m 0 min 0 min 0,0 UV-I 171 W/m 15,4 km/h (3 Bft)
10.05.2013 14:00 14,5 C 14,6 C 70 % 1014,0 hPa 0,0 l/m 0 min 0 min 0,8 UV-I 216 W/m 18,0 km/h (3 Bft)
10.05.2013 14:02 14,4 C 14,6 C 71 % 1014,0 hPa 0,0 l/m 0 min 0 min 1,0 UV-I 255 W/m 7,7 km/h (2 Bft)
10.05.2013 14:04 14,6 C 15,1 C 70 % 1013,9 hPa 0,0 l/m 0 min 0 min 1,2 UV-I 304 W/m 10,3 km/h (2 Bft)
10.05.2013 14:06 14,6 C 15,1 C 70 % 1014,1 hPa 0,0 l/m 0 min 0 min 1,5 UV-I 348 W/m 10,3 km/h (2 Bft)
10.05.2013 14:08 14,7 C 15,7 C 69 % 1014,1 hPa 0,0 l/m 0 min 0 min 1,8 UV-I 394 W/m 12,9 km/h (3 Bft)
10.05.2013 14:10 14,8 C 15,7 C 69 % 1014,1 hPa 0,0 l/m 0 min 0 min 1,7 UV-I 362 W/m 10,3 km/h (2 Bft)
10.05.2013 14:12 14,9 C 15,7 C 69 % 1014,2 hPa 0,0 l/m 0 min 0 min 1,2 UV-I 288 W/m 12,9 km/h (3 Bft)
10.05.2013 14:14 14,9 C 15,7 C 68 % 1014,0 hPa 0,0 l/m 0 min 0 min 0,7 UV-I 213 W/m 15,4 km/h (3 Bft)
10.05.2013 14:16 14,8 C 15,1 C 68 % 1014,1 hPa 0,0 l/m 0 min 0 min 0,0 UV-I 151 W/m 38,6 km/h (5 Bft)
10.05.2013 14:18 14,8 C 14,6 C 68 % 1014,2 hPa 0,0 l/m 0 min 0 min 0,0 UV-I 104 W/m 12,9 km/h (3 Bft)
10.05.2013 14:20 14,7 C 14,6 C 69 % 1014,2 hPa 0,0 l/m 0 min 0 min 0,0 UV-I 90 W/m 15,4 km/h (3 Bft)
10.05.2013 14:22 14,6 C 14,0 C 70 % 1014,1 hPa 0,0 l/m 0 min 0 min 0,0 UV-I 113 W/m 20,6 km/h (4 Bft)
10.05.2013 14:24 14,5 C 14,0 C 71 % 1014,3 hPa 0,0 l/m 0 min 0 min 0,0 UV-I 123 W/m 10,3 km/h (2 Bft)
10.05.2013 14:26 14,4 C 14,0 C 71 % 1014,3 hPa 0,0 l/m 0 min 0 min 0,0 UV-I 120 W/m 12,9 km/h (3 Bft)
10.05.2013 14:28 14,3 C 14,0 C 71 % 1014,3 hPa 0,0 l/m 0 min 0 min 0,0 UV-I 144 W/m 12,9 km/h (3 Bft)
10.05.2013 14:30 14,3 C 14,0 C 71 % 1014,3 hPa 0,0 l/m 0 min 0 min 0,7 UV-I 214 W/m 12,9 km/h (3 Bft)
10.05.2013 14:32 14,3 C 14,6 C 71 % 1014,3 hPa 0,0 l/m 0 min 0 min 1,2 UV-I 250 W/m 23,2 km/h (4 Bft)
10.05.2013 14:34 14,4 C 15,1 C 71 % 1014,3 hPa 0,0 l/m 0 min 0 min 1,5 UV-I 355 W/m 18,0 km/h (3 Bft)
10.05.2013 14:36 14,6 C 15,1 C 71 % 1014,3 hPa 0,0 l/m 0 min 0 min 1,4 UV-I 322 W/m 23,2 km/h (4 Bft)
10.05.2013 14:38 14,7 C 15,7 C 71 % 1014,3 hPa 0,0 l/m 0 min 0 min 1,1 UV-I 281 W/m 10,3 km/h (2 Bft)
10.05.2013 14:40 14,8 C 15,7 C 71 % 1014,3 hPa 0,0 l/m 0 min 0 min 0,7 UV-I 216 W/m 10,3 km/h (2 Bft)
10.05.2013 14:42 14,8 C 15,7 C 71 % 1014,3 hPa 0,0 l/m 0 min 0 min 0,7 UV-I 216 W/m 12,9 km/h (3 Bft)
10.05.2013 14:44 14,8 C 15,1 C 70 % 1014,3 hPa 0,0 l/m 0 min 0 min 0,7 UV-I 218 W/m 15,4 km/h (3 Bft)
10.05.2013 14:46 14,7 C 14,6 C 69 % 1014,3 hPa 0,0 l/m 0 min 0 min 1,5 UV-I 304 W/m 15,4 km/h (3 Bft)
10.05.2013 14:48 14,7 C 15,1 C 69 % 1014,6 hPa 0,0 l/m 0 min 0 min 1,3 UV-I 308 W/m 18,0 km/h (3 Bft)
10.05.2013 14:50 14,7 C 15,7 C 70 % 1014,4 hPa 0,0 l/m 0 min 0 min 1,8 UV-I 401 W/m 15,4 km/h (3 Bft)
10.05.2013 14:52 14,8 C 15,7 C 70 % 1014,3 hPa 0,0 l/m 0 min 0 min 2,0 UV-I 392 W/m 12,9 km/h (3 Bft)
10.05.2013 14:54 14,9 C 16,2 C 70 % 1014,4 hPa 0,0 l/m 2 min 0 min 2,8 UV-I 580 W/m 28,3 km/h (4 Bft)
10.05.2013 14:56 15,1 C 16,2 C 68 % 1014,4 hPa 0,0 l/m 2 min 0 min 2,6 UV-I 677 W/m 20,6 km/h (4 Bft)
10.05.2013 14:58 15,2 C 16,2 C 67 % 1014,4 hPa 0,0 l/m 2 min 0 min 1,3 UV-I 677 W/m 28,3 km/h (4 Bft)
10.05.2013 15:00 15,1 C 15,7 C 67 % 1014,3 hPa 0,0 l/m 0 min 0 min 0,6 UV-I 227 W/m 25,7 km/h (4 Bft)
10.05.2013 15:02 15,0 C 15,1 C 68 % 1014,2 hPa 0,0 l/m 0 min 0 min 0,0 UV-I 137 W/m 18,0 km/h (3 Bft)
10.05.2013 15:04 14,9 C 14,6 C 68 % 1014,3 hPa 0,0 l/m 0 min 0 min 0,0 UV-I 109 W/m 18,0 km/h (3 Bft)
10.05.2013 15:06 14,8 C 14,6 C 69 % 1014,3 hPa 0,0 l/m 0 min 0 min 0,0 UV-I 102 W/m 15,4 km/h (3 Bft)
10.05.2013 15:08 14,7 C 14,0 C 69 % 1014,2 hPa 0,0 l/m 0 min 0 min 0,0 UV-I 97 W/m 12,9 km/h (3 Bft)
10.05.2013 15:10 14,7 C 14,0 C 69 % 1014,3 hPa 0,0 l/m 0 min 0 min 0,0 UV-I 97 W/m 23,2 km/h (4 Bft)
10.05.2013 15:12 14,6 C 14,0 C 70 % 1014,4 hPa 0,0 l/m 0 min 0 min 0,0 UV-I 76 W/m 20,6 km/h (4 Bft)
10.05.2013 15:14 14,5 C 14,0 C 71 % 1014,3 hPa 0,0 l/m 0 min 0 min 0,0 UV-I 65 W/m 7,7 km/h (2 Bft)
10.05.2013 15:16 14,4 C 14,0 C 71 % 1014,4 hPa 0,0 l/m 0 min 0 min 0,0 UV-I 72 W/m 10,3 km/h (2 Bft)
10.05.2013 15:18 14,3 C 14,0 C 71 % 1014,4 hPa 0,0 l/m 0 min 0 min 0,0 UV-I 79 W/m 18,0 km/h (3 Bft)
10.05.2013 15:20 14,3 C 14,0 C 71 % 1014,5 hPa 0,0 l/m 0 min 0 min 0,0 UV-I 102 W/m 5,1 km/h (1 Bft)
10.05.2013 15:22 14,3 C 14,0 C 72 % 1014,5 hPa 0,0 l/m 0 min 0 min 0,0 UV-I 127 W/m 5,1 km/h (1 Bft)
10.05.2013 15:24 14,3 C 14,0 C 72 % 1014,5 hPa 0,0 l/m 0 min 0 min 0,0 UV-I 160 W/m 5,1 km/h (1 Bft)
10.05.2013 15:26 14,3 C 14,0 C 72 % 1014,5 hPa 0,0 l/m 0 min 0 min 0,5 UV-I 220 W/m 7,7 km/h (2 Bft)
10.05.2013 15:28 14,4 C 14,6 C 71 % 1014,4 hPa 0,0 l/m 0 min 0 min 1,0 UV-I 272 W/m 7,7 km/h (2 Bft)
10.05.2013 15:30 14,5 C 15,1 C 72 % 1014,4 hPa 0,0 l/m 0 min 0 min 1,2 UV-I 308 W/m 7,7 km/h (2 Bft)
10.05.2013 15:32 14,7 C 15,1 C 71 % 1014,4 hPa 0,0 l/m 0 min 0 min 1,1 UV-I 251 W/m 7,7 km/h (2 Bft)
10.05.2013 15:34 14,8 C 15,7 C 72 % 1014,4 hPa 0,0 l/m 0 min 0 min 0,6 UV-I 206 W/m 5,1 km/h (1 Bft)
10.05.2013 15:36 14,8 C 15,7 C 71 % 1014,4 hPa 0,0 l/m 0 min 0 min 0,0 UV-I 165 W/m 10,3 km/h (2 Bft)
10.05.2013 15:38 14,8 C 15,1 C 70 % 1014,4 hPa 0,0 l/m 0 min 0 min 0,0 UV-I 160 W/m 7,7 km/h (2 Bft)
10.05.2013 15:40 14,8 C 15,1 C 71 % 1014,5 hPa 0,0 l/m 0 min 0 min 0,0 UV-I 172 W/m 7,7 km/h (2 Bft)
10.05.2013 15:42 14,7 C 15,1 C 71 % 1014,4 hPa 0,0 l/m 0 min 0 min 0,0 UV-I 188 W/m 10,3 km/h (2 Bft)
10.05.2013 15:44 14,8 C 15,1 C 71 % 1014,4 hPa 0,0 l/m 0 min 0 min 0,5 UV-I 185 W/m 7,7 km/h (2 Bft)
10.05.2013 15:46 14,8 C 15,1 C 71 % 1014,4 hPa 0,0 l/m 0 min 0 min 0,0 UV-I 179 W/m 10,3 km/h (2 Bft)
10.05.2013 15:48 14,8 C 15,1 C 71 % 1014,4 hPa 0,0 l/m 0 min 0 min 0,0 UV-I 171 W/m 5,1 km/h (1 Bft)
10.05.2013 15:50 14,8 C 15,1 C 70 % 1014,5 hPa 0,0 l/m 0 min 0 min 0,5 UV-I 250 W/m 10,3 km/h (2 Bft)
10.05.2013 15:52 14,8 C 15,1 C 71 % 1014,4 hPa 0,0 l/m 0 min 0 min 1,0 UV-I 304 W/m 7,7 km/h (2 Bft)
10.05.2013 15:54 14,9 C 15,7 C 71 % 1014,5 hPa 0,0 l/m 0 min 0 min 1,1 UV-I 318 W/m 15,4 km/h (3 Bft)
10.05.2013 15:56 15,0 C 15,7 C 69 % 1014,5 hPa 0,0 l/m 0 min 0 min 1,1 UV-I 295 W/m 20,6 km/h (4 Bft)
10.05.2013 15:58 15,0 C 15,7 C 69 % 1014,5 hPa 0,0 l/m 0 min 0 min 1,1 UV-I 297 W/m 12,9 km/h (3 Bft)
10.05.2013 16:00 15,1 C 15,7 C 69 % 1014,4 hPa 0,0 l/m 0 min 0 min 1,1 UV-I 309 W/m 20,6 km/h (4 Bft)
10.05.2013 16:02 15,1 C 15,7 C 69 % 1014,4 hPa 0,0 l/m 0 min 0 min 0,8 UV-I 267 W/m 7,7 km/h (2 Bft)
10.05.2013 16:04 15,1 C 15,7 C 69 % 1014,5 hPa 0,0 l/m 0 min 0 min 0,5 UV-I 218 W/m 18,0 km/h (3 Bft)
10.05.2013 16:06 15,1 C 15,7 C 68 % 1014,5 hPa 0,0 l/m 0 min 0 min 0,0 UV-I 185 W/m 15,4 km/h (3 Bft)
10.05.2013 16:08 15,1 C 15,1 C 69 % 1014,5 hPa 0,0 l/m 0 min 0 min 0,0 UV-I 134 W/m 7,7 km/h (2 Bft)
10.05.2013 16:10 15,1 C 15,1 C 70 % 1014,5 hPa 0,0 l/m 0 min 0 min 0,0 UV-I 146 W/m 7,7 km/h (2 Bft)
10.05.2013 16:12 15,0 C 15,1 C 68 % 1014,5 hPa 0,0 l/m 0 min 0 min 0,5 UV-I 211 W/m 18,0 km/h (3 Bft)
10.05.2013 16:14 14,9 C 15,1 C 69 % 1014,4 hPa 0,0 l/m 0 min 0 min 1,3 UV-I 359 W/m 7,7 km/h (2 Bft)
10.05.2013 16:16 15,3 C 17,9 C 71 % 1014,5 hPa 0,0 l/m 2 min 0 min 2,6 UV-I 928 W/m 10,3 km/h (2 Bft)
10.05.2013 16:18 15,7 C 19,0 C 67 % 1014,4 hPa 0,0 l/m 2 min 0 min 2,7 UV-I 795 W/m 20,6 km/h (4 Bft)
10.05.2013 16:20 15,7 C 16,8 C 66 % 1014,5 hPa 0,0 l/m 0 min 0 min 0,6 UV-I 137 W/m 28,3 km/h (4 Bft)
10.05.2013 16:22 15,5 C 15,7 C 66 % 1014,4 hPa 0,0 l/m 0 min 0 min 0,0 UV-I 130 W/m 18,0 km/h (3 Bft)
10.05.2013 16:24 15,3 C 15,1 C 67 % 1014,5 hPa 0,0 l/m 0 min 0 min 0,0 UV-I 105 W/m 15,4 km/h (3 Bft)
10.05.2013 16:26 15,2 C 14,6 C 68 % 1014,5 hPa 0,0 l/m 0 min 0 min 0,0 UV-I 90 W/m 15,4 km/h (3 Bft)
10.05.2013 16:28 15,1 C 14,6 C 68 % 1014,5 hPa 0,0 l/m 0 min 0 min 0,0 UV-I 86 W/m 15,4 km/h (3 Bft)
10.05.2013 16:30 14,9 C 14,6 C 68 % 1014,5 hPa 0,0 l/m 0 min 0 min 0,0 UV-I 107 W/m 12,9 km/h (3 Bft)
10.05.2013 16:32 14,8 C 14,0 C 68 % 1014,6 hPa 0,0 l/m 0 min 0 min 0,0 UV-I 130 W/m 15,4 km/h (3 Bft)
10.05.2013 16:34 14,7 C 14,6 C 69 % 1014,7 hPa 0,0 l/m 0 min 0 min 0,0 UV-I 141 W/m 18,0 km/h (3 Bft)
10.05.2013 16:36 14,7 C 14,6 C 70 % 1014,6 hPa 0,0 l/m 0 min 0 min 0,0 UV-I 114 W/m 5,1 km/h (1 Bft)
10.05.2013 16:38 14,7 C 14,6 C 70 % 1014,6 hPa 0,0 l/m 0 min 0 min 0,0 UV-I 91 W/m 18,0 km/h (3 Bft)
10.05.2013 16:40 14,6 C 14,0 C 70 % 1014,7 hPa 0,0 l/m 0 min 0 min 0,0 UV-I 77 W/m 15,4 km/h (3 Bft)
10.05.2013 16:42 14,6 C 14,0 C 70 % 1014,7 hPa 0,0 l/m 0 min 0 min 0,0 UV-I 79 W/m 12,9 km/h (3 Bft)
10.05.2013 16:44 14,6 C 14,0 C 70 % 1014,6 hPa 0,0 l/m 0 min 0 min 0,0 UV-I 90 W/m 23,2 km/h (4 Bft)
10.05.2013 16:46 14,5 C 14,0 C 71 % 1014,7 hPa 0,0 l/m 0 min 0 min 0,0 UV-I 98 W/m 10,3 km/h (2 Bft)
10.05.2013 16:48 14,4 C 14,0 C 70 % 1014,6 hPa 0,0 l/m 0 min 0 min 0,0 UV-I 118 W/m 7,7 km/h (2 Bft)
10.05.2013 16:50 14,4 C 14,0 C 70 % 1014,7 hPa 0,0 l/m 0 min 0 min 0,0 UV-I 148 W/m 12,9 km/h (3 Bft)
10.05.2013 16:52 14,4 C 14,6 C 71 % 1014,7 hPa 0,0 l/m 0 min 0 min 0,0 UV-I 183 W/m 7,7 km/h (2 Bft)
10.05.2013 16:54 14,6 C 14,6 C 72 % 1014,7 hPa 0,0 l/m 0 min 0 min 0,0 UV-I 211 W/m 2,6 km/h (1 Bft)
10.05.2013 16:56 14,7 C 14,6 C 71 % 1014,6 hPa 0,0 l/m 0 min 0 min 0,0 UV-I 188 W/m 0,0 km/h (0 Bft)
10.05.2013 16:58 14,7 C 14,6 C 71 % 1014,6 hPa 0,0 l/m 0 min 0 min 0,0 UV-I 163 W/m 7,7 km/h (2 Bft)
10.05.2013 17:00 14,7 C 14,6 C 71 % 1014,6 hPa 0,0 l/m 0 min 0 min 0,0 UV-I 153 W/m 10,3 km/h (2 Bft)
10.05.2013 17:02 14,7 C 14,6 C 71 % 1014,6 hPa 0,0 l/m 0 min 0 min 0,0 UV-I 135 W/m 10,3 km/h (2 Bft)
10.05.2013 17:04 14,7 C 14,6 C 71 % 1014,7 hPa 0,0 l/m 0 min 0 min 0,0 UV-I 105 W/m 15,4 km/h (3 Bft)
10.05.2013 17:06 14,7 C 14,6 C 71 % 1014,6 hPa 0,0 l/m 0 min 0 min 0,0 UV-I 77 W/m 12,9 km/h (3 Bft)
10.05.2013 17:08 14,7 C 14,0 C 71 % 1014,6 hPa 0,0 l/m 0 min 0 min 0,0 UV-I 67 W/m 0,0 km/h (0 Bft)
10.05.2013 17:10 14,6 C 14,0 C 71 % 1014,6 hPa 0,0 l/m 0 min 0 min 0,0 UV-I 63 W/m 10,3 km/h (2 Bft)
10.05.2013 17:12 14,6 C 14,0 C 71 % 1014,7 hPa 0,0 l/m 0 min 0 min 0,0 UV-I 58 W/m 15,4 km/h (3 Bft)
10.05.2013 17:14 14,5 C 13,4 C 71 % 1014,6 hPa 0,0 l/m 0 min 0 min 0,0 UV-I 54 W/m 10,3 km/h (2 Bft)
10.05.2013 17:16 14,5 C 13,4 C 71 % 1014,6 hPa 0,0 l/m 0 min 0 min 0,0 UV-I 60 W/m 5,1 km/h (1 Bft)
10.05.2013 17:18 14,4 C 13,4 C 71 % 1014,7 hPa 0,0 l/m 0 min 0 min 0,0 UV-I 84 W/m 7,7 km/h (2 Bft)
10.05.2013 17:20 14,4 C 13,4 C 71 % 1014,6 hPa 0,0 l/m 0 min 0 min 0,0 UV-I 109 W/m 7,7 km/h (2 Bft)
10.05.2013 17:22 14,3 C 14,0 C 71 % 1014,6 hPa 0,0 l/m 0 min 0 min 0,0 UV-I 118 W/m 7,7 km/h (2 Bft)
10.05.2013 17:24 14,3 C 14,0 C 72 % 1014,6 hPa 0,0 l/m 0 min 0 min 0,0 UV-I 102 W/m 5,1 km/h (1 Bft)
10.05.2013 17:26 14,4 C 14,0 C 72 % 1014,6 hPa 0,0 l/m 0 min 0 min 0,0 UV-I 77 W/m 0,0 km/h (0 Bft)
10.05.2013 17:28 14,4 C 14,0 C 72 % 1014,5 hPa 0,0 l/m 0 min 0 min 0,0 UV-I 62 W/m 5,1 km/h (1 Bft)
10.05.2013 17:30 14,4 C 14,0 C 72 % 1014,5 hPa 0,0 l/m 0 min 0 min 0,0 UV-I 53 W/m 10,3 km/h (2 Bft)
10.05.2013 17:32 14,3 C 13,4 C 72 % 1014,5 hPa 0,0 l/m 0 min 0 min 0,0 UV-I 47 W/m 0,0 km/h (0 Bft)
10.05.2013 17:34 14,3 C 13,4 C 72 % 1014,5 hPa 0,0 l/m 0 min 0 min 0,0 UV-I 42 W/m 7,7 km/h (2 Bft)
10.05.2013 17:36 14,3 C 13,4 C 72 % 1014,5 hPa 0,0 l/m 0 min 2 min 0,0 UV-I 40 W/m 5,1 km/h (1 Bft)
10.05.2013 17:38 14,2 C 13,4 C 72 % 1014,4 hPa 0,0 l/m 0 min 0 min 0,0 UV-I 42 W/m 7,7 km/h (2 Bft)
10.05.2013 17:40 14,2 C 13,4 C 72 % 1014,6 hPa 0,0 l/m 0 min 0 min 0,0 UV-I 47 W/m 12,9 km/h (3 Bft)
10.05.2013 17:42 14,2 C 13,4 C 73 % 1014,5 hPa 0,0 l/m 0 min 0 min 0,0 UV-I 69 W/m 0,0 km/h (0 Bft)
10.05.2013 17:44 14,1 C 13,4 C 73 % 1014,5 hPa 0,0 l/m 0 min 0 min 0,0 UV-I 91 W/m 0,0 km/h (0 Bft)
10.05.2013 17:46 14,1 C 13,4 C 73 % 1014,5 hPa 0,0 l/m 0 min 0 min 0,0 UV-I 116 W/m 12,9 km/h (3 Bft)
10.05.2013 17:48 14,1 C 13,4 C 73 % 1014,5 hPa 0,0 l/m 0 min 0 min 0,0 UV-I 121 W/m 7,7 km/h (2 Bft)
10.05.2013 17:50 14,2 C 14,0 C 74 % 1014,5 hPa 0,0 l/m 0 min 0 min 0,0 UV-I 120 W/m 0,0 km/h (0 Bft)
10.05.2013 17:52 14,2 C 14,0 C 73 % 1014,5 hPa 0,0 l/m 0 min 0 min 0,0 UV-I 97 W/m 2,6 km/h (1 Bft)
10.05.2013 17:54 14,2 C 13,4 C 73 % 1014,6 hPa 0,0 l/m 0 min 0 min 0,0 UV-I 77 W/m 5,1 km/h (1 Bft)
10.05.2013 17:56 14,2 C 13,4 C 74 % 1014,5 hPa 0,0 l/m 0 min 0 min 0,0 UV-I 67 W/m 0,0 km/h (0 Bft)
10.05.2013 17:58 14,2 C 13,4 C 74 % 1014,5 hPa 0,0 l/m 0 min 0 min 0,0 UV-I 69 W/m 0,0 km/h (0 Bft)
10.05.2013 18:00 14,2 C 13,4 C 74 % 1014,5 hPa 0,0 l/m 0 min 0 min 0,0 UV-I 76 W/m 10,3 km/h (2 Bft)
10.05.2013 18:02 14,2 C 13,4 C 74 % 1014,6 hPa 0,0 l/m 0 min 0 min 0,0 UV-I 81 W/m 5,1 km/h (1 Bft)
10.05.2013 18:04 14,2 C 13,4 C 74 % 1014,5 hPa 0,0 l/m 0 min 0 min 0,0 UV-I 93 W/m 2,6 km/h (1 Bft)
10.05.2013 18:06 14,2 C 13,4 C 74 % 1014,5 hPa 0,0 l/m 0 min 0 min 0,0 UV-I 102 W/m 10,3 km/h (2 Bft)
10.05.2013 18:08 14,2 C 14,0 C 74 % 1014,5 hPa 0,0 l/m 0 min 0 min 0,0 UV-I 116 W/m 5,1 km/h (1 Bft)
10.05.2013 18:10 14,3 C 14,0 C 74 % 1014,5 hPa 0,0 l/m 0 min 0 min 0,0 UV-I 148 W/m 5,1 km/h (1 Bft)
10.05.2013 18:12 14,3 C 14,0 C 74 % 1014,5 hPa 0,0 l/m 0 min 0 min 0,0 UV-I 174 W/m 7,7 km/h (2 Bft)
10.05.2013 18:14 14,4 C 14,6 C 74 % 1014,5 hPa 0,0 l/m 0 min 0 min 0,0 UV-I 197 W/m 7,7 km/h (2 Bft)
10.05.2013 18:16 14,6 C 14,6 C 75 % 1014,5 hPa 0,0 l/m 0 min 0 min 0,0 UV-I 221 W/m 10,3 km/h (2 Bft)
10.05.2013 18:18 14,7 C 14,6 C 74 % 1014,5 hPa 0,0 l/m 0 min 0 min 0,0 UV-I 207 W/m 10,3 km/h (2 Bft)
10.05.2013 18:20 14,7 C 14,6 C 74 % 1014,6 hPa 0,0 l/m 0 min 0 min 0,0 UV-I 193 W/m 7,7 km/h (2 Bft)
10.05.2013 18:22 14,7 C 14,6 C 75 % 1014,6 hPa 0,0 l/m 0 min 0 min 0,0 UV-I 176 W/m 12,9 km/h (3 Bft)
10.05.2013 18:24 14,6 C 14,6 C 74 % 1014,6 hPa 0,0 l/m 0 min 0 min 0,0 UV-I 171 W/m 10,3 km/h (2 Bft)
10.05.2013 18:26 14,6 C 14,6 C 75 % 1014,6 hPa 0,0 l/m 0 min 0 min 0,0 UV-I 162 W/m 7,7 km/h (2 Bft)
10.05.2013 18:28 14,5 C 14,6 C 75 % 1014,5 hPa 0,0 l/m 0 min 0 min 0,0 UV-I 165 W/m 15,4 km/h (3 Bft)
10.05.2013 18:30 14,5 C 14,6 C 75 % 1014,5 hPa 0,0 l/m 0 min 0 min 0,0 UV-I 158 W/m 5,1 km/h (1 Bft)
10.05.2013 18:32 14,5 C 14,6 C 75 % 1014,5 hPa 0,0 l/m 0 min 0 min 0,0 UV-I 139 W/m 10,3 km/h (2 Bft)
10.05.2013 18:34 14,5 C 14,6 C 76 % 1014,5 hPa 0,0 l/m 0 min 0 min 0,0 UV-I 95 W/m 2,6 km/h (1 Bft)
10.05.2013 18:36 14,4 C 14,0 C 75 % 1014,5 hPa 0,0 l/m 0 min 0 min 0,0 UV-I 76 W/m 15,4 km/h (3 Bft)
10.05.2013 18:38 14,4 C 13,4 C 75 % 1014,6 hPa 0,0 l/m 0 min 0 min 0,0 UV-I 60 W/m 18,0 km/h (3 Bft)
10.05.2013 18:40 14,3 C 13,4 C 75 % 1014,5 hPa 0,0 l/m 0 min 0 min 0,0 UV-I 40 W/m 7,7 km/h (2 Bft)
10.05.2013 18:42 14,3 C 13,4 C 76 % 1014,5 hPa 0,0 l/m 0 min 0 min 0,0 UV-I 33 W/m 7,7 km/h (2 Bft)
10.05.2013 18:44 14,2 C 13,4 C 76 % 1014,6 hPa 0,0 l/m 0 min 0 min 0,0 UV-I 28 W/m 5,1 km/h (1 Bft)
10.05.2013 18:46 14,2 C 13,4 C 76 % 1014,5 hPa 0,0 l/m 0 min 0 min 0,0 UV-I 21 W/m 10,3 km/h (2 Bft)
10.05.2013 18:48 14,2 C 13,4 C 76 % 1014,6 hPa 0,0 l/m 0 min 0 min 0,0 UV-I 18 W/m 10,3 km/h (2 Bft)
10.05.2013 18:50 14,2 C 12,9 C 77 % 1014,8 hPa 0,0 l/m 0 min 0 min 0,0 UV-I 16 W/m 18,0 km/h (3 Bft)
10.05.2013 18:52 14,1 C 12,9 C 77 % 1014,8 hPa 0,0 l/m 0 min 2 min 0,0 UV-I 12 W/m 12,9 km/h (3 Bft)
10.05.2013 18:54 14,1 C 12,3 C 78 % 1014,7 hPa 0,0 l/m 0 min 2 min 0,0 UV-I 14 W/m 15,4 km/h (3 Bft)
10.05.2013 18:56 14,0 C 12,3 C 78 % 1014,8 hPa 0,0 l/m 0 min 0 min 0,0 UV-I 14 W/m 15,4 km/h (3 Bft)
10.05.2013 18:58 14,0 C 12,3 C 78 % 1014,8 hPa 0,0 l/m 0 min 2 min 0,0 UV-I 14 W/m 23,2 km/h (4 Bft)
10.05.2013 19:00 14,0 C 12,3 C 78 % 1014,9 hPa 0,0 l/m 0 min 0 min 0,0 UV-I 16 W/m 12,9 km/h (3 Bft)
10.05.2013 19:02 13,9 C 12,3 C 78 % 1015,0 hPa 0,0 l/m 0 min 2 min 0,0 UV-I 16 W/m 7,7 km/h (2 Bft)
10.05.2013 19:04 13,8 C 11,8 C 79 % 1015,0 hPa 0,0 l/m 0 min 0 min 0,0 UV-I 16 W/m 12,9 km/h (3 Bft)
10.05.2013 19:06 13,8 C 11,8 C 79 % 1015,0 hPa 0,0 l/m 0 min 2 min 0,0 UV-I 16 W/m 7,7 km/h (2 Bft)
10.05.2013 19:08 13,7 C 11,8 C 79 % 1015,0 hPa 0,0 l/m 0 min 2 min 0,0 UV-I 16 W/m 18,0 km/h (3 Bft)
10.05.2013 19:10 13,6 C 11,8 C 80 % 1015,0 hPa 0,0 l/m 0 min 2 min 0,0 UV-I 18 W/m 5,1 km/h (1 Bft)
10.05.2013 19:12 13,5 C 11,2 C 81 % 1015,0 hPa 0,0 l/m 0 min 2 min 0,0 UV-I 19 W/m 10,3 km/h (2 Bft)
10.05.2013 19:14 13,4 C 11,2 C 81 % 1015,0 hPa 0,0 l/m 0 min 2 min 0,0 UV-I 16 W/m 15,4 km/h (3 Bft)
10.05.2013 19:16 13,3 C 11,2 C 81 % 1015,0 hPa 0,0 l/m 0 min 2 min 0,0 UV-I 16 W/m 5,1 km/h (1 Bft)
10.05.2013 19:18 13,3 C 10,7 C 82 % 1015,1 hPa 0,0 l/m 0 min 2 min 0,0 UV-I 18 W/m 0,0 km/h (0 Bft)
10.05.2013 19:20 13,2 C 10,7 C 83 % 1015,1 hPa 0,0 l/m 0 min 2 min 0,0 UV-I 19 W/m 0,0 km/h (0 Bft)
10.05.2013 19:22 13,2 C 10,7 C 83 % 1015,1 hPa 0,0 l/m 0 min 2 min 0,0 UV-I 25 W/m 0,0 km/h (0 Bft)
10.05.2013 19:24 13,1 C 10,7 C 84 % 1015,2 hPa 0,0 l/m 0 min 2 min 0,0 UV-I 33 W/m 10,3 km/h (2 Bft)
10.05.2013 19:26 13,1 C 10,7 C 84 % 1015,1 hPa 0,0 l/m 0 min 2 min 0,0 UV-I 26 W/m 10,3 km/h (2 Bft)
10.05.2013 19:28 13,0 C 10,7 C 85 % 1015,1 hPa 0,0 l/m 0 min 2 min 0,0 UV-I 28 W/m 5,1 km/h (1 Bft)
10.05.2013 19:30 12,9 C 10,7 C 85 % 1015,0 hPa 0,0 l/m 0 min 2 min 0,0 UV-I 30 W/m 7,7 km/h (2 Bft)
10.05.2013 19:32 12,9 C 10,7 C 86 % 1015,0 hPa 0,0 l/m 0 min 2 min 0,0 UV-I 28 W/m 15,4 km/h (3 Bft)
10.05.2013 19:34 12,8 C 10,7 C 86 % 1015,0 hPa 0,2 l/m 0 min 0 min 0,0 UV-I 35 W/m 2,6 km/h (1 Bft)
10.05.2013 19:36 12,8 C 10,7 C 86 % 1015,0 hPa 0,0 l/m 0 min 2 min 0,0 UV-I 47 W/m 2,6 km/h (1 Bft)
10.05.2013 19:38 12,7 C 10,7 C 86 % 1015,0 hPa 0,0 l/m 0 min 2 min 0,0 UV-I 35 W/m 2,6 km/h (1 Bft)
10.05.2013 19:40 12,7 C 10,7 C 87 % 1015,1 hPa 0,0 l/m 0 min 0 min 0,0 UV-I 26 W/m 5,1 km/h (1 Bft)
10.05.2013 19:42 12,7 C 10,7 C 87 % 1015,1 hPa 0,0 l/m 0 min 0 min 0,0 UV-I 21 W/m 0,0 km/h (0 Bft)
10.05.2013 19:44 12,7 C 10,7 C 87 % 1015,1 hPa 0,0 l/m 0 min 0 min 0,0 UV-I 21 W/m 2,6 km/h (1 Bft)
10.05.2013 19:46 12,6 C 10,7 C 87 % 1015,1 hPa 0,0 l/m 0 min 0 min 0,0 UV-I 28 W/m 5,1 km/h (1 Bft)
10.05.2013 19:48 12,6 C 10,7 C 87 % 1015,1 hPa 0,0 l/m 0 min 0 min 0,0 UV-I 35 W/m 2,6 km/h (1 Bft)
10.05.2013 19:50 12,6 C 10,7 C 88 % 1015,1 hPa 0,0 l/m 0 min 0 min 0,0 UV-I 46 W/m 2,6 km/h (1 Bft)
10.05.2013 19:52 12,6 C 10,7 C 88 % 1015,2 hPa 0,0 l/m 0 min 0 min 0,0 UV-I 42 W/m 0,0 km/h (0 Bft)
10.05.2013 19:54 12,5 C 10,7 C 88 % 1015,2 hPa 0,0 l/m 0 min 0 min 0,0 UV-I 32 W/m 0,0 km/h (0 Bft)
10.05.2013 19:56 12,5 C 10,7 C 88 % 1015,2 hPa 0,0 l/m 0 min 0 min 0,0 UV-I 26 W/m 5,1 km/h (1 Bft)
10.05.2013 19:58 12,5 C 10,7 C 88 % 1015,1 hPa 0,0 l/m 0 min 0 min 0,0 UV-I 28 W/m 2,6 km/h (1 Bft)
10.05.2013 20:00 12,4 C 10,7 C 88 % 1015,1 hPa 0,0 l/m 0 min 0 min 0,0 UV-I 25 W/m 2,6 km/h (1 Bft)
10.05.2013 20:02 12,4 C 10,7 C 88 % 1015,1 hPa 0,0 l/m 0 min 0 min 0,0 UV-I 21 W/m 2,6 km/h (1 Bft)
10.05.2013 20:04 12,4 C 10,7 C 88 % 1015,2 hPa 0,0 l/m 0 min 0 min 0,0 UV-I 19 W/m 5,1 km/h (1 Bft)
10.05.2013 20:06 12,4 C 10,7 C 88 % 1015,2 hPa 0,0 l/m 0 min 0 min 0,0 UV-I 21 W/m 5,1 km/h (1 Bft)
10.05.2013 20:08 12,4 C 10,7 C 88 % 1015,2 hPa 0,0 l/m 0 min 0 min 0,0 UV-I 33 W/m 2,6 km/h (1 Bft)
10.05.2013 20:10 12,3 C 10,7 C 88 % 1015,3 hPa 0,0 l/m 0 min 0 min 0,0 UV-I 42 W/m 7,7 km/h (2 Bft)
10.05.2013 20:12 12,3 C 10,7 C 89 % 1015,2 hPa 0,0 l/m 0 min 0 min 0,0 UV-I 46 W/m 2,6 km/h (1 Bft)
10.05.2013 20:14 12,3 C 10,7 C 89 % 1015,3 hPa 0,0 l/m 0 min 0 min 0,0 UV-I 46 W/m 2,6 km/h (1 Bft)
10.05.2013 20:16 12,3 C 10,7 C 89 % 1015,2 hPa 0,0 l/m 0 min 0 min 0,0 UV-I 40 W/m 7,7 km/h (2 Bft)
10.05.2013 20:18 12,3 C 10,7 C 89 % 1015,2 hPa 0,0 l/m 0 min 0 min 0,0 UV-I 32 W/m 0,0 km/h (0 Bft)
10.05.2013 20:20 12,3 C 10,7 C 89 % 1015,2 hPa 0,0 l/m 0 min 0 min 0,0 UV-I 21 W/m 2,6 km/h (1 Bft)
10.05.2013 20:22 12,3 C 10,7 C 89 % 1015,2 hPa 0,0 l/m 0 min 0 min 0,0 UV-I 21 W/m 2,6 km/h (1 Bft)
10.05.2013 20:24 12,3 C 10,7 C 89 % 1015,2 hPa 0,0 l/m 0 min 0 min 0,0 UV-I 21 W/m 0,0 km/h (0 Bft)
10.05.2013 20:26 12,3 C 10,7 C 89 % 1015,2 hPa 0,0 l/m 0 min 0 min 0,0 UV-I 21 W/m 0,0 km/h (0 Bft)
10.05.2013 20:28 12,3 C 10,7 C 89 % 1015,3 hPa 0,0 l/m 0 min 0 min 0,0 UV-I 21 W/m 2,6 km/h (1 Bft)
10.05.2013 20:30 12,3 C 10,7 C 89 % 1015,3 hPa 0,0 l/m 0 min 0 min 0,0 UV-I 19 W/m 2,6 km/h (1 Bft)
10.05.2013 20:32 12,3 C 10,7 C 89 % 1015,2 hPa 0,0 l/m 0 min 0 min 0,0 UV-I 18 W/m 2,6 km/h (1 Bft)
10.05.2013 20:34 12,3 C 10,7 C 89 % 1015,2 hPa 0,0 l/m 0 min 0 min 0,0 UV-I 16 W/m 7,7 km/h (2 Bft)
10.05.2013 20:36 12,3 C 10,7 C 89 % 1015,2 hPa 0,0 l/m 0 min 0 min 0,0 UV-I 14 W/m 15,4 km/h (3 Bft)
10.05.2013 20:38 12,3 C 10,7 C 89 % 1015,2 hPa 0,0 l/m 0 min 0 min 0,0 UV-I 12 W/m 2,6 km/h (1 Bft)
10.05.2013 20:40 12,3 C 10,7 C 89 % 1015,2 hPa 0,0 l/m 0 min 0 min 0,0 UV-I 11 W/m 0,0 km/h (0 Bft)
10.05.2013 20:42 12,3 C 10,7 C 89 % 1015,2 hPa 0,0 l/m 0 min 0 min 0,0 UV-I 9 W/m 5,1 km/h (1 Bft)
10.05.2013 20:44 12,3 C 11,2 C 89 % 1015,3 hPa 0,0 l/m 0 min 0 min 0,0 UV-I 9 W/m 2,6 km/h (1 Bft)
10.05.2013 20:46 12,3 C 11,2 C 89 % 1015,3 hPa 0,0 l/m 0 min 0 min 0,0 UV-I 9 W/m 7,7 km/h (2 Bft)
10.05.2013 20:48 12,2 C 11,2 C 89 % 1015,3 hPa 0,0 l/m 0 min 0 min 0,0 UV-I 9 W/m 10,3 km/h (2 Bft)
10.05.2013 20:50 12,2 C 11,2 C 89 % 1015,2 hPa 0,0 l/m 0 min 0 min 0,0 UV-I 7 W/m 7,7 km/h (2 Bft)
10.05.2013 20:52 12,2 C 11,2 C 89 % 1015,3 hPa 0,0 l/m 0 min 0 min 0,0 UV-I 7 W/m 5,1 km/h (1 Bft)
10.05.2013 20:54 12,2 C 11,2 C 89 % 1015,3 hPa 0,0 l/m 0 min 0 min 0,0 UV-I 7 W/m 5,1 km/h (1 Bft)
10.05.2013 20:56 12,2 C 11,2 C 89 % 1015,3 hPa 0,0 l/m 0 min 0 min 0,0 UV-I 7 W/m 10,3 km/h (2 Bft)
10.05.2013 20:58 12,2 C 11,2 C 89 % 1015,3 hPa 0,0 l/m 0 min 0 min 0,0 UV-I 7 W/m 12,9 km/h (3 Bft)
10.05.2013 21:00 12,2 C 10,7 C 89 % 1015,2 hPa 0,0 l/m 0 min 0 min 0,0 UV-I 7 W/m 5,1 km/h (1 Bft)
10.05.2013 21:02 12,2 C 10,7 C 88 % 1015,3 hPa 0,0 l/m 0 min 0 min 0,0 UV-I 5 W/m 7,7 km/h (2 Bft)
10.05.2013 21:04 12,2 C 10,7 C 88 % 1015,3 hPa 0,0 l/m 0 min 0 min 0,0 UV-I 5 W/m 7,7 km/h (2 Bft)
10.05.2013 21:06 12,2 C 10,7 C 88 % 1015,3 hPa 0,0 l/m 0 min 0 min 0,0 UV-I 5 W/m 10,3 km/h (2 Bft)
10.05.2013 21:08 12,2 C 11,2 C 88 % 1015,4 hPa 0,0 l/m 0 min 0 min 0,0 UV-I 5 W/m 5,1 km/h (1 Bft)
10.05.2013 21:10 12,2 C 11,2 C 88 % 1015,4 hPa 0,0 l/m 0 min 0 min 0,0 UV-I 5 W/m 2,6 km/h (1 Bft)
10.05.2013 21:12 12,2 C 11,2 C 88 % 1015,4 hPa 0,0 l/m 0 min 0 min 0,0 UV-I 0 W/m 0,0 km/h (0 Bft)
10.05.2013 21:14 12,2 C 11,2 C 88 % 1015,4 hPa 0,0 l/m 0 min 0 min 0,0 UV-I 0 W/m 5,1 km/h (1 Bft)
10.05.2013 21:16 12,2 C 11,2 C 88 % 1015,4 hPa 0,0 l/m 0 min 0 min 0,0 UV-I 0 W/m 7,7 km/h (2 Bft)
10.05.2013 21:18 12,2 C 11,2 C 88 % 1015,5 hPa 0,0 l/m 0 min 0 min 0,0 UV-I 0 W/m 5,1 km/h (1 Bft)
10.05.2013 21:20 12,2 C 11,2 C 87 % 1015,5 hPa 0,0 l/m 0 min 0 min 0,0 UV-I 0 W/m 2,6 km/h (1 Bft)
10.05.2013 21:22 12,2 C 11,2 C 87 % 1015,6 hPa 0,0 l/m 0 min 0 min 0,0 UV-I 0 W/m 12,9 km/h (3 Bft)
10.05.2013 21:24 12,2 C 11,2 C 87 % 1015,7 hPa 0,0 l/m 0 min 0 min 0,0 UV-I 0 W/m 7,7 km/h (2 Bft)
10.05.2013 21:26 12,2 C 11,2 C 87 % 1015,7 hPa 0,0 l/m 0 min 0 min 0,0 UV-I 0 W/m 2,6 km/h (1 Bft)
10.05.2013 21:28 12,2 C 11,2 C 87 % 1015,6 hPa 0,0 l/m 0 min 0 min 0,0 UV-I 0 W/m 5,1 km/h (1 Bft)
10.05.2013 21:30 12,2 C 11,2 C 87 % 1015,6 hPa 0,0 l/m 0 min 0 min 0,0 UV-I 0 W/m 7,7 km/h (2 Bft)
10.05.2013 21:32 12,2 C 11,2 C 87 % 1015,8 hPa 0,0 l/m 0 min 0 min 0,0 UV-I 0 W/m 5,1 km/h (1 Bft)
10.05.2013 21:34 12,2 C 11,2 C 87 % 1015,7 hPa 0,0 l/m 0 min 0 min 0,0 UV-I 0 W/m 2,6 km/h (1 Bft)
10.05.2013 21:36 12,2 C 11,2 C 87 % 1015,8 hPa 0,0 l/m 0 min 0 min 0,0 UV-I 0 W/m 0,0 km/h (0 Bft)
10.05.2013 21:38 12,2 C 11,2 C 87 % 1015,9 hPa 0,0 l/m 0 min 0 min 0,0 UV-I 0 W/m 5,1 km/h (1 Bft)
10.05.2013 21:40 12,2 C 11,2 C 87 % 1015,9 hPa 0,0 l/m 0 min 0 min 0,0 UV-I 0 W/m 0,0 km/h (0 Bft)
10.05.2013 21:42 12,2 C 11,2 C 87 % 1015,9 hPa 0,0 l/m 0 min 0 min 0,0 UV-I 0 W/m 0,0 km/h (0 Bft)
10.05.2013 21:44 12,2 C 11,2 C 87 % 1015,9 hPa 0,0 l/m 0 min 0 min 0,0 UV-I 0 W/m 10,3 km/h (2 Bft)
10.05.2013 21:46 12,2 C 11,2 C 87 % 1015,9 hPa 0,0 l/m 0 min 0 min 0,0 UV-I 0 W/m 7,7 km/h (2 Bft)
10.05.2013 21:48 12,2 C 11,2 C 87 % 1016,0 hPa 0,0 l/m 0 min 0 min 0,0 UV-I 0 W/m 5,1 km/h (1 Bft)
10.05.2013 21:50 12,2 C 11,2 C 87 % 1016,0 hPa 0,0 l/m 0 min 0 min 0,0 UV-I 0 W/m 7,7 km/h (2 Bft)
10.05.2013 21:52 12,2 C 11,2 C 87 % 1016,0 hPa 0,0 l/m 0 min 0 min 0,0 UV-I 0 W/m 5,1 km/h (1 Bft)
10.05.2013 21:54 12,2 C 11,2 C 87 % 1016,1 hPa 0,0 l/m 0 min 0 min 0,0 UV-I 0 W/m 7,7 km/h (2 Bft)
10.05.2013 21:56 12,2 C 11,2 C 87 % 1016,1 hPa 0,0 l/m 0 min 0 min 0,0 UV-I 0 W/m 7,7 km/h (2 Bft)
10.05.2013 21:58 12,2 C 11,2 C 87 % 1016,0 hPa 0,0 l/m 0 min 0 min 0,0 UV-I 0 W/m 2,6 km/h (1 Bft)
10.05.2013 22:00 12,2 C 11,2 C 87 % 1016,1 hPa 0,0 l/m 0 min 0 min 0,0 UV-I 0 W/m 10,3 km/h (2 Bft)
10.05.2013 22:02 12,2 C 11,2 C 87 % 1016,1 hPa 0,0 l/m 0 min 0 min 0,0 UV-I 0 W/m 10,3 km/h (2 Bft)
10.05.2013 22:04 12,2 C 11,2 C 87 % 1016,1 hPa 0,0 l/m 0 min 0 min 0,0 UV-I 0 W/m 7,7 km/h (2 Bft)
10.05.2013 22:06 12,2 C 11,2 C 87 % 1016,1 hPa 0,0 l/m 0 min 0 min 0,0 UV-I 0 W/m 10,3 km/h (2 Bft)
10.05.2013 22:08 12,2 C 11,2 C 87 % 1016,1 hPa 0,0 l/m 0 min 0 min 0,0 UV-I 0 W/m 10,3 km/h (2 Bft)
10.05.2013 22:10 12,2 C 11,2 C 87 % 1016,2 hPa 0,0 l/m 0 min 0 min 0,0 UV-I 0 W/m 0,0 km/h (0 Bft)
10.05.2013 22:12 12,2 C 11,2 C 86 % 1016,2 hPa 0,0 l/m 0 min 0 min 0,0 UV-I 0 W/m 2,6 km/h (1 Bft)
10.05.2013 22:14 12,2 C 11,2 C 86 % 1016,2 hPa 0,0 l/m 0 min 0 min 0,0 UV-I 0 W/m 0,0 km/h (0 Bft)
10.05.2013 22:16 12,2 C 11,2 C 86 % 1016,2 hPa 0,0 l/m 0 min 0 min 0,0 UV-I 0 W/m 2,6 km/h (1 Bft)
10.05.2013 22:18 12,2 C 11,2 C 86 % 1016,2 hPa 0,0 l/m 0 min 0 min 0,0 UV-I 0 W/m 5,1 km/h (1 Bft)
10.05.2013 22:20 12,2 C 11,2 C 86 % 1016,2 hPa 0,0 l/m 0 min 0 min 0,0 UV-I 0 W/m 0,0 km/h (0 Bft)
10.05.2013 22:22 12,2 C 11,2 C 86 % 1016,2 hPa 0,0 l/m 0 min 0 min 0,0 UV-I 0 W/m 2,6 km/h (1 Bft)
10.05.2013 22:24 12,2 C 11,2 C 86 % 1016,2 hPa 0,0 l/m 0 min 0 min 0,0 UV-I 0 W/m 2,6 km/h (1 Bft)
10.05.2013 22:26 12,2 C 11,2 C 86 % 1016,2 hPa 0,0 l/m 0 min 0 min 0,0 UV-I 0 W/m 5,1 km/h (1 Bft)
10.05.2013 22:28 12,2 C 11,2 C 86 % 1016,2 hPa 0,0 l/m 0 min 0 min 0,0 UV-I 0 W/m 0,0 km/h (0 Bft)
10.05.2013 22:30 12,2 C 11,2 C 86 % 1016,2 hPa 0,0 l/m 0 min 0 min 0,0 UV-I 0 W/m 0,0 km/h (0 Bft)
10.05.2013 22:32 12,2 C 11,2 C 86 % 1016,2 hPa 0,0 l/m 0 min 0 min 0,0 UV-I 0 W/m 2,6 km/h (1 Bft)
10.05.2013 22:34 12,2 C 11,2 C 86 % 1016,3 hPa 0,0 l/m 0 min 0 min 0,0 UV-I 0 W/m 0,0 km/h (0 Bft)
10.05.2013 22:36 12,2 C 11,2 C 86 % 1016,2 hPa 0,0 l/m 0 min 0 min 0,0 UV-I 0 W/m 0,0 km/h (0 Bft)
10.05.2013 22:38 12,2 C 11,2 C 86 % 1016,3 hPa 0,0 l/m 0 min 0 min 0,0 UV-I 0 W/m 2,6 km/h (1 Bft)
10.05.2013 22:40 12,2 C 10,7 C 86 % 1016,2 hPa 0,0 l/m 0 min 0 min 0,0 UV-I 0 W/m 0,0 km/h (0 Bft)
10.05.2013 22:42 12,2 C 10,7 C 86 % 1016,3 hPa 0,0 l/m 0 min 0 min 0,0 UV-I 0 W/m 2,6 km/h (1 Bft)
10.05.2013 22:44 12,2 C 10,7 C 86 % 1016,3 hPa 0,0 l/m 0 min 0 min 0,0 UV-I 0 W/m 2,6 km/h (1 Bft)
10.05.2013 22:46 12,2 C 10,7 C 86 % 1016,3 hPa 0,0 l/m 0 min 0 min 0,0 UV-I 0 W/m 5,1 km/h (1 Bft)
10.05.2013 22:48 12,2 C 10,7 C 86 % 1016,2 hPa 0,0 l/m 0 min 0 min 0,0 UV-I 0 W/m 0,0 km/h (0 Bft)
10.05.2013 22:50 12,2 C 10,7 C 86 % 1016,3 hPa 0,0 l/m 0 min 0 min 0,0 UV-I 0 W/m 5,1 km/h (1 Bft)
10.05.2013 22:52 12,1 C 10,7 C 86 % 1016,4 hPa 0,0 l/m 0 min 0 min 0,0 UV-I 0 W/m 5,1 km/h (1 Bft)
10.05.2013 22:54 12,1 C 10,7 C 86 % 1016,3 hPa 0,0 l/m 0 min 0 min 0,0 UV-I 0 W/m 0,0 km/h (0 Bft)
10.05.2013 22:56 12,1 C 10,1 C 86 % 1016,3 hPa 0,0 l/m 0 min 0 min 0,0 UV-I 0 W/m 2,6 km/h (1 Bft)
10.05.2013 22:58 12,1 C 10,1 C 85 % 1016,4 hPa 0,0 l/m 0 min 0 min 0,0 UV-I 0 W/m 0,0 km/h (0 Bft)
10.05.2013 23:00 12,0 C 10,1 C 85 % 1016,4 hPa 0,0 l/m 0 min 0 min 0,0 UV-I 0 W/m 2,6 km/h (1 Bft)
10.05.2013 23:02 12,0 C 10,1 C 85 % 1016,4 hPa 0,0 l/m 0 min 0 min 0,0 UV-I 0 W/m 0,0 km/h (0 Bft)
10.05.2013 23:04 11,9 C 10,1 C 85 % 1016,5 hPa 0,0 l/m 0 min 0 min 0,0 UV-I 0 W/m 2,6 km/h (1 Bft)
10.05.2013 23:06 11,9 C 10,1 C 85 % 1016,4 hPa 0,0 l/m 0 min 0 min 0,0 UV-I 0 W/m 2,6 km/h (1 Bft)
10.05.2013 23:08 11,8 C 10,1 C 85 % 1016,5 hPa 0,0 l/m 0 min 0 min 0,0 UV-I 0 W/m 2,6 km/h (1 Bft)
10.05.2013 23:10 11,8 C 10,1 C 85 % 1016,4 hPa 0,0 l/m 0 min 0 min 0,0 UV-I 0 W/m 5,1 km/h (1 Bft)
10.05.2013 23:12 11,8 C 10,1 C 85 % 1016,4 hPa 0,0 l/m 0 min 0 min 0,0 UV-I 0 W/m 5,1 km/h (1 Bft)
10.05.2013 23:14 11,7 C 10,1 C 85 % 1016,5 hPa 0,0 l/m 0 min 0 min 0,0 UV-I 0 W/m 5,1 km/h (1 Bft)
10.05.2013 23:16 11,7 C 10,1 C 85 % 1016,5 hPa 0,0 l/m 0 min 0 min 0,0 UV-I 0 W/m 2,6 km/h (1 Bft)
10.05.2013 23:18 11,7 C 10,1 C 85 % 1016,5 hPa 0,0 l/m 0 min 0 min 0,0 UV-I 0 W/m 2,6 km/h (1 Bft)
10.05.2013 23:20 11,7 C 9,6 C 85 % 1016,5 hPa 0,0 l/m 0 min 0 min 0,0 UV-I 0 W/m 0,0 km/h (0 Bft)
10.05.2013 23:22 11,6 C 9,6 C 85 % 1016,5 hPa 0,0 l/m 0 min 0 min 0,0 UV-I 0 W/m 5,1 km/h (1 Bft)
10.05.2013 23:24 11,6 C 9,6 C 85 % 1016,5 hPa 0,0 l/m 0 min 0 min 0,0 UV-I 0 W/m 5,1 km/h (1 Bft)
10.05.2013 23:26 11,6 C 9,6 C 85 % 1016,5 hPa 0,0 l/m 0 min 0 min 0,0 UV-I 0 W/m 0,0 km/h (0 Bft)
10.05.2013 23:28 11,5 C 9,6 C 85 % 1016,5 hPa 0,0 l/m 0 min 0 min 0,0 UV-I 0 W/m 0,0 km/h (0 Bft)
10.05.2013 23:30 11,5 C 9,6 C 85 % 1016,5 hPa 0,0 l/m 0 min 0 min 0,0 UV-I 0 W/m 5,1 km/h (1 Bft)
10.05.2013 23:32 11,4 C 9,6 C 85 % 1016,6 hPa 0,0 l/m 0 min 0 min 0,0 UV-I 0 W/m 2,6 km/h (1 Bft)
10.05.2013 23:34 11,4 C 9,6 C 85 % 1016,6 hPa 0,0 l/m 0 min 0 min 0,0 UV-I 0 W/m 2,6 km/h (1 Bft)
10.05.2013 23:36 11,3 C 9,6 C 85 % 1016,6 hPa 0,0 l/m 0 min 0 min 0,0 UV-I 0 W/m 5,1 km/h (1 Bft)
10.05.2013 23:38 11,3 C 9,6 C 84 % 1016,6 hPa 0,0 l/m 0 min 0 min 0,0 UV-I 0 W/m 0,0 km/h (0 Bft)
10.05.2013 23:40 11,3 C 9,6 C 84 % 1016,6 hPa 0,0 l/m 0 min 0 min 0,0 UV-I 0 W/m 0,0 km/h (0 Bft)
10.05.2013 23:42 11,3 C 9,6 C 84 % 1016,6 hPa 0,0 l/m 0 min 0 min 0,0 UV-I 0 W/m 2,6 km/h (1 Bft)
10.05.2013 23:44 11,2 C 9,6 C 85 % 1016,6 hPa 0,0 l/m 0 min 0 min 0,0 UV-I 0 W/m 2,6 km/h (1 Bft)
10.05.2013 23:46 11,2 C 9,6 C 85 % 1016,6 hPa 0,0 l/m 0 min 0 min 0,0 UV-I 0 W/m 0,0 km/h (0 Bft)
10.05.2013 23:48 11,2 C 9,6 C 85 % 1016,6 hPa 0,0 l/m 0 min 0 min 0,0 UV-I 0 W/m 2,6 km/h (1 Bft)
10.05.2013 23:50 11,1 C 9,6 C 85 % 1016,6 hPa 0,0 l/m 0 min 0 min 0,0 UV-I 0 W/m 0,0 km/h (0 Bft)
10.05.2013 23:52 11,1 C 9,6 C 85 % 1016,6 hPa 0,0 l/m 0 min 0 min 0,0 UV-I 0 W/m 2,6 km/h (1 Bft)
10.05.2013 23:54 11,1 C 9,6 C 85 % 1016,6 hPa 0,0 l/m 0 min 0 min 0,0 UV-I 0 W/m 0,0 km/h (0 Bft)
10.05.2013 23:56 11,1 C 9,0 C 85 % 1016,7 hPa 0,0 l/m 0 min 0 min 0,0 UV-I 0 W/m 2,6 km/h (1 Bft)
10.05.2013 23:58 11,0 C 9,0 C 85 % 1016,7 hPa 0,0 l/m 0 min 0 min 0,0 UV-I 0 W/m 2,6 km/h (1 Bft)
_ Min-Zeit 06:14 06:08 13:42 03:24 - - - - - 00:00
Minimum _ 9,9 C 8,4 C 63 % 1011,1 hPa - - - - - 0,0 km/h (0 Bft)
_ Max-Zeit 13:42 13:38 20:12 23:56 19:34 09:46 08:42 12:12 13:02 14:16
Maximum _ 16,6 C 22,9 C 89 % 1016,7 hPa 0,2 l/m 2 min 2 min 4,0 UV-I 1051 W/m 38,6 km/h
S (5 Bft)
Durchschnitt _ 12,8 C 12,4 C 76 % 1013,4 hPa #0,2 l/m #1:46 h #1:02 h 1,6 UV-I 206 W/m 9,5 km/h (2 Bft)
© 2013 W. Hausmann